Flight Track Log - Related Links

Times and Time Zones

All times are in EDT time to prevent confusion due to time zone crossing. See the BAW243 flight status page for this flight to view local times or setup timezone preferences in your user account.

Time Position Orientation Groundspeed Altitude Reporting Facility
EDT Latitude Longitude Course Direction KTS MPH feet Rate Location/Type
Wed 09:26:37 AM 51.4600 -0.3800 130° Southeast 197 227 1,200  Level FlightAware ADS-B
Wed 09:26:50 AM 51.4473 -0.3685 151° Southeast 1,600 1,875 Climbing FlightAware ADS-B
Wed 09:27:09 AM 51.4301 -0.3735 190° South 209 241 2,200 1,826 Climbing FlightAware ADS-B
Wed 09:27:13 AM 51.4269 -0.3769 213° Southwest 208 239 2,300 2,250 Climbing FlightAware ADS-B
Wed 09:27:17 AM 51.4238 -0.3809 219° Southwest 207 238 2,500 2,000 Climbing FlightAware ADS-B
Wed 09:27:25 AM 51.4193 -0.3909 234° Southwest 207 238 2,700 1,500 Climbing FlightAware ADS-B
Wed 09:27:29 AM 51.4179 -0.3966 249° West 206 237 2,800 1,200 Climbing FlightAware ADS-B
Wed 09:27:35 AM 51.4168 -0.4054 259° West 207 238 2,900 1,667 Climbing FlightAware ADS-B
Wed 09:27:47 AM 51.4163 -0.4237 267° West 204 235 3,300 2,143 Climbing FlightAware ADS-B
Wed 09:28:03 AM 51.4163 -0.4478 270° West 203 234 3,900 2,069 Climbing FlightAware ADS-B
Wed 09:28:16 AM 51.4163 -0.4658 270° West 203 234 4,300 1,500 Climbing FlightAware ADS-B
Wed 09:28:27 AM 51.4161 -0.4829 269° West 214 246 4,500 889 Climbing FlightAware ADS-B
Wed 09:28:43 AM 51.4160 -0.5109 270° West 232 267 4,700 774 Climbing FlightAware ADS-B
Wed 09:28:58 AM 51.4160 -0.5380 270° West 250 288 4,900 1,200 Climbing FlightAware ADS-B
Wed 09:29:13 AM 51.4160 -0.5669 270° West 267 307 5,300 1,600 Climbing FlightAware ADS-B
Wed 09:29:28 AM 51.4160 -0.5973 270° West 278 320 5,700 1,935 Climbing FlightAware ADS-B
Wed 09:29:44 AM 51.4157 -0.6308 269° West 286 329 6,300 2,571 Climbing FlightAware ADS-B
Wed 09:29:56 AM 51.4155 -0.6564 269° West 290 334 6,900 2,842 Climbing FlightAware ADS-B
Wed 09:30:03 AM 51.4146 -0.6715 265° West 292 336 7,200 2,308 Climbing FlightAware ADS-B
Wed 09:30:09 AM 51.4129 -0.6844 258° West 295 339 7,400 2,455 Climbing FlightAware ADS-B
Wed 09:30:25 AM 51.4077 -0.7162 255° West 297 342 8,100 2,516 Climbing FlightAware ADS-B
Wed 09:30:40 AM 51.4021 -0.7502 255° West 299 344 8,700 2,323 Climbing FlightAware ADS-B
Wed 09:30:56 AM 51.3964 -0.7826 254° West 304 350 9,300 2,129 Climbing FlightAware ADS-B
Wed 09:31:11 AM 51.3905 -0.8174 255° West 306 352 9,800 913 Climbing FlightAware ADS-B
Wed 09:31:42 AM 51.3787 -0.8873 255° West 324 373 10,000 545 Climbing FlightAware ADS-B
Wed 09:32:06 AM 51.3695 -0.9436 255° West 334 384 10,300 828 Climbing FlightAware ADS-B
Wed 09:32:11 AM 51.3679 -0.9559 258° West 339 390 10,400 1,500 Climbing FlightAware ADS-B
Wed 09:32:18 AM 51.3671 -0.9735 266° West 346 398 10,600 1,200 Climbing FlightAware ADS-B
Wed 09:32:21 AM 51.3673 -0.9810 272° West 348 400 10,600 750 Level FlightAware ADS-B
Wed 09:32:26 AM 51.3682 -0.9914 278° West 352 405 10,700 1,333 Climbing FlightAware ADS-B
Wed 09:32:30 AM 51.3697 -1.0014 283° West 354 407 10,800 1,091 Climbing FlightAware ADS-B
Wed 09:32:37 AM 51.3739 -1.0214 289° West 359 413 10,900 1,091 Climbing FlightAware ADS-B
Wed 09:32:41 AM 51.3771 -1.0310 298° West 362 417 11,000 1,500 Climbing FlightAware ADS-B
Wed 09:32:53 AM 51.3875 -1.0560 304° West 370 426 11,300 1,429 Climbing FlightAware ADS-B
Wed 09:33:23 AM 51.4189 -1.1241 307° West 388 447 12,000 -400 Climbing FlightAware ADS-B
Wed 09:33:38 AM 51.4359 -1.1625 307° West 394 453 11,000 2,200 Descending FlightAware UK
Wed 09:33:53 AM 51.4518 -1.1970 307° West 397 457 13,100 4,304 Climbing FlightAware ADS-B
Wed 09:34:24 AM 51.4849 -1.2715 306° West 402 463 14,300 353 Climbing FlightAware ADS-B
Wed 09:34:44 AM 51.5070 -1.3211 306° West 410 472 13,400 2,200 Descending FlightAware UK
Wed 09:34:54 AM 51.5184 -1.3443 306° West 406 467 15,400 4,390 Climbing FlightAware ADS-B
Wed 09:35:25 AM 51.5534 -1.4195 307° West 412 474 16,400 2,000 Climbing FlightAware ADS-B
Wed 09:35:51 AM 51.5831 -1.4838 307° West 416 479 17,300 1,935 Climbing FlightAware ADS-B
Wed 09:35:56 AM 51.5885 -1.4967 304° West 418 481 17,400 1,091 Climbing FlightAware ADS-B
Wed 09:36:02 AM 51.5941 -1.5129 299° West 419 482 17,500 -2,000 Climbing FlightAware ADS-B
Wed 09:36:20 AM 51.6089 -1.5645 299° West 428 493 16,600 1,935 Descending FlightAware UK
Wed 09:36:33 AM 51.6185 -1.5978 299° West 421 484 18,500 3,907 Climbing FlightAware ADS-B
Wed 09:37:03 AM 51.6386 -1.6895 289° West 425 489 19,400  Climbing FlightAware ADS-B
Wed 09:37:26 AM 51.6539 -1.7587 289° West 444 511 18,500 1,875 Descending FlightAware UK
Wed 09:37:35 AM 51.6596 -1.7825 289° West 429 494 20,400 4,050 Climbing FlightAware ADS-B
Wed 09:38:06 AM 51.6802 -1.8797 289° West 433 498 21,200 -235 Climbing FlightAware ADS-B
Wed 09:38:26 AM 51.6928 -1.9403 289° West 452 520 20,200 1,742 Descending FlightAware UK
Wed 09:38:37 AM 51.7003 -1.9749 289° West 438 504 22,100 1,655 Climbing FlightAware ADS-B
Wed 09:38:55 AM 51.7120 -2.0327 289° West 454 522 21,000 1,355 Descending FlightAware UK
Wed 09:39:08 AM 51.7199 -2.0680 289° West 443 510 22,800 4,235 Climbing FlightAware ADS-B
Wed 09:39:29 AM 51.7327 -2.1342 287° West 443 510 23,400 1,529 Climbing FlightAware ADS-B
Wed 09:39:59 AM 51.7470 -2.2308 283° West 445 512 24,100 -480 Climbing FlightAware ADS-B
Wed 09:40:19 AM 51.7569 -2.3008 283° West 464 534 23,000 1,500 Descending FlightAware UK
Wed 09:40:31 AM 51.7626 -2.3377 283° West 449 517 24,900 3,120 Climbing FlightAware ADS-B
Wed 09:41:09 AM 51.7804 -2.4590 283° West 455 524 25,600 1,120 Climbing FlightAware ADS-B
Wed 09:41:46 AM 51.7981 -2.5819 283° West 458 527 26,300 -577 Climbing FlightAware ADS-B
Wed 09:42:01 AM 51.8055 -2.6372 283° West 478 550 25,100 1,235 Descending FlightAware UK
Wed 09:42:20 AM 51.8145 -2.6993 283° West 459 528 27,000 1,167 Climbing FlightAware ADS-B
Wed 09:42:37 AM 51.8228 -2.7580 283° West 484 557 25,800 1,235 Descending FlightAware UK
Wed 09:42:54 AM 51.8308 -2.8106 283° West 466 536 27,700 1,143 Climbing FlightAware ADS-B
Wed 09:43:19 AM 51.8431 -2.8996 283° West 488 562 26,600 1,313 Descending FlightAware UK
Wed 09:43:26 AM 51.8467 -2.9229 283° West 467 537 28,400 1,750 Climbing FlightAware ADS-B
Wed 09:43:43 AM 51.8547 -2.9813 283° West 486 559 27,300 1,667 Descending FlightAware UK
Wed 09:44:02 AM 51.8641 -3.0442 283° West 465 535 29,400 1,667 Climbing FlightAware ADS-B
Wed 09:44:19 AM 51.8723 -3.1020 283° West 484 557 28,300 1,548 Descending FlightAware UK
Wed 09:44:33 AM 51.8788 -3.1448 283° West 458 527 30,200 3,652 Climbing FlightAware ADS-B
Wed 09:45:05 AM 51.8942 -3.2541 283° West 453 521 31,100  Climbing FlightAware ADS-B
Wed 09:45:31 AM 51.9061 -3.3401 283° West 478 550 30,200 -818 Descending FlightAware UK
Wed 09:45:49 AM 51.9141 -3.3993 282° West 478 550 30,500 3,484 Climbing FlightAware UK
Wed 09:46:02 AM 51.9180 -3.4280 282° West 451 519 32,000  Climbing FlightAware ADS-B
Wed 09:46:31 AM 51.9325 -3.5370 282° West 476 548 30,500  Descending FlightAware UK
Wed 09:46:47 AM 51.9390 -3.5800 282° West 452 520 32,000  Climbing FlightAware ADS-B
Wed 09:47:13 AM 51.9510 -3.6756 282° West 478 550 30,500  Descending FlightAware UK
Wed 09:47:27 AM 51.9570 -3.7160 282° West 451 519 32,000  Climbing FlightAware ADS-B
Wed 09:47:43 AM 51.9644 -3.7748 282° West 478 550 30,500 -2,250 Descending FlightAware UK
Wed 09:48:07 AM 51.9747 -3.8543 282° West 480 552 30,500 3,103 Level FlightAware UK
Wed 09:48:12 AM 51.9760 -3.8650 282° West 452 520 32,000  Climbing FlightAware ADS-B
Wed 09:48:37 AM 51.9873 -3.9539 282° West 480 552 30,500  Descending FlightAware UK
Wed 09:48:52 AM 51.9930 -4.0010 282° West 451 519 32,000  Climbing FlightAware ADS-B
Wed 09:49:12 AM 52.0025 -4.0726 282° West 478 550 30,500  Descending FlightAware UK
Wed 09:49:32 AM 52.0090 -4.1190 282° West 450 518 32,000  Climbing FlightAware ADS-B
Wed 09:49:54 AM 52.0218 -4.2108 282° West 480 552 30,500  Descending FlightAware UK
Wed 09:50:17 AM 52.0310 -4.2770 282° West 449 517 32,000  Climbing FlightAware ADS-B
Wed 09:50:36 AM 52.0405 -4.3490 282° West 480 552 30,500  Descending FlightAware UK
Wed 09:50:57 AM 52.0480 -4.4060 282° West 447 514 32,000  Climbing FlightAware ADS-B
Wed 09:51:18 AM 52.0584 -4.4871 282° West 480 552 30,500 -2,308 Descending FlightAware UK
Wed 09:51:36 AM 52.0660 -4.5461 282° West 480 552 30,500 4,737 Level FlightAware UK
Wed 09:51:37 AM 52.0650 -4.5370 282° West 447 514 32,000  Climbing FlightAware ADS-B
Wed 09:51:54 AM 52.0737 -4.6050 282° West 480 552 30,500 -2,571 Descending FlightAware UK
Wed 09:52:12 AM 52.0813 -4.6640 282° West 478 550 30,500 3,214 Level FlightAware UK
Wed 09:52:22 AM 52.0850 -4.6910 282° West 446 513 32,000  Climbing FlightAware ADS-B
Wed 09:52:42 AM 52.0939 -4.7624 282° West 480 552 30,500 -2,368 Descending FlightAware UK
Wed 09:53:00 AM 52.1015 -4.8214 282° West 480 552 30,500 4,500 Level FlightAware UK
Wed 09:53:02 AM 52.1010 -4.8220 282° West 447 514 32,000  Climbing FlightAware ADS-B
Wed 09:53:18 AM 52.1089 -4.8798 282° West 480 552 30,500 -2,647 Descending FlightAware UK
Wed 09:53:36 AM 52.1163 -4.9389 282° West 480 552 30,500 3,103 Level FlightAware UK
Wed 09:53:47 AM 52.1200 -4.9670 282° West 444 511 32,000  Climbing FlightAware ADS-B
Wed 09:54:06 AM 52.1286 -5.0373 282° West 480 552 30,500 -2,432 Descending FlightAware UK
Wed 09:54:24 AM 52.1360 -5.0962 282° West 480 552 30,500 4,286 Level FlightAware UK
Wed 09:54:27 AM 52.1360 -5.0940 282° West 443 510 32,000  Climbing FlightAware ADS-B
Wed 09:54:42 AM 52.1446 -5.1539 282° West 480 552 30,500 -2,727 Descending FlightAware UK
Wed 09:55:00 AM 52.1555 -5.2110 287° West 480 552 30,500 3,600 Level FlightAware UK
Wed 09:55:07 AM 52.1590 -5.2250 287° West 443 510 32,000  Climbing FlightAware ADS-B
Wed 09:55:30 AM 52.1780 -5.3042 287° West 480 552 30,500 -2,195 Descending FlightAware UK
Wed 09:55:48 AM 52.1915 -5.3601 292° West 480 552 30,500 4,091 Level FlightAware UK
Wed 09:55:52 AM 52.1920 -5.3620 292° West 441 507 32,000  Climbing FlightAware ADS-B
Wed 09:56:12 AM 52.2093 -5.4345 292° West 480 552 30,500 -2,368 Descending FlightAware UK
Wed 09:56:30 AM 52.2225 -5.4903 291° West 480 552 30,500 4,500 Level FlightAware UK
Wed 09:56:32 AM 52.2220 -5.4890 291° West 441 507 32,000  Climbing FlightAware ADS-B
Wed 09:56:48 AM 52.2356 -5.5460 291° West 480 552 30,500 -2,647 Descending FlightAware UK
Wed 09:57:06 AM 52.2488 -5.6018 291° West 480 552 30,500 3,103 Level FlightAware UK
Wed 09:57:17 AM 52.2540 -5.6250 291° West 440 506 32,000  Climbing FlightAware ADS-B
Wed 09:57:36 AM 52.2706 -5.6948 291° West 480 552 30,500 -2,432 Descending FlightAware UK
Wed 09:57:54 AM 52.2836 -5.7505 291° West 480 552 30,500 4,286 Level FlightAware UK
Wed 09:57:57 AM 52.2830 -5.7490 291° West 438 504 32,000  Climbing FlightAware ADS-B
Wed 09:58:12 AM 52.2966 -5.8062 291° West 480 552 30,500 -2,727 Descending FlightAware UK
Wed 09:58:30 AM 52.3096 -5.8619 291° West 482 555 30,500 3,000 Level FlightAware UK
Wed 09:58:42 AM 52.3160 -5.8880 291° West 440 506 32,000  Climbing FlightAware ADS-B
Wed 09:59:00 AM 52.3310 -5.9551 291° West 484 557 30,500 -2,500 Descending FlightAware UK
Wed 09:59:18 AM 52.3438 -6.0110 291° West 484 557 30,500 4,091 Level FlightAware UK
Wed 09:59:22 AM 52.3460 -6.0190 291° West 439 505 32,000  Climbing FlightAware ADS-B
Wed 09:59:42 AM 52.3608 -6.0850 291° West 484 557 30,500 -2,368 Descending FlightAware UK
Wed 10:00:00 AM 52.3736 -6.1410 291° West 484 557 30,500 4,500 Level FlightAware UK
Wed 10:00:02 AM 52.3740 -6.1430 291° West 439 505 32,000  Climbing FlightAware ADS-B
Wed 10:00:18 AM 52.3865 -6.1970 291° West 484 557 30,500 -2,647 Descending FlightAware UK
Wed 10:00:36 AM 52.3992 -6.2530 291° West 484 557 30,500 3,103 Level FlightAware UK
Wed 10:00:47 AM 52.4060 -6.2800 291° West 438 504 32,000  Climbing FlightAware ADS-B
Wed 10:01:06 AM 52.4204 -6.3462 291° West 482 555 30,500 -2,432 Descending FlightAware UK
Wed 10:01:24 AM 52.4332 -6.4021 291° West 482 555 30,500 4,286 Level FlightAware UK
Wed 10:01:27 AM 52.4330 -6.3980 291° West 439 505 32,000  Climbing FlightAware ADS-B
Wed 10:01:42 AM 52.4458 -6.4581 291° West 482 555 30,500 -2,727 Descending FlightAware UK
Wed 10:02:00 AM 52.4583 -6.5141 290° West 484 557 30,500 3,000 Level FlightAware UK
Wed 10:02:12 AM 52.4650 -6.5440 290° West 439 505 32,000  Climbing FlightAware ADS-B
Wed 10:02:30 AM 52.4793 -6.6077 290° West 484 557 30,500 -2,500 Descending FlightAware UK
Wed 10:02:48 AM 52.4919 -6.6638 290° West 484 557 30,500 4,091 Level FlightAware UK
Wed 10:02:52 AM 52.4930 -6.6690 290° West 436 502 32,000  Climbing FlightAware ADS-B
Wed 10:03:12 AM 52.5086 -6.7385 290° West 484 557 30,500 -2,368 Descending FlightAware UK
Wed 10:03:30 AM 52.5210 -6.7944 290° West 484 557 30,500 4,500 Level FlightAware UK
Wed 10:03:32 AM 52.5210 -6.7930 290° West 435 501 32,000  Climbing FlightAware ADS-B
Wed 10:03:48 AM 52.5334 -6.8501 290° West 482 555 30,500 -2,647 Descending FlightAware UK
Wed 10:04:06 AM 52.5457 -6.9057 290° West 482 555 30,500 3,103 Level FlightAware UK
Wed 10:04:17 AM 52.5510 -6.9290 290° West 434 499 32,000  Climbing FlightAware ADS-B
Wed 10:04:36 AM 52.5661 -6.9985 290° West 482 555 30,500 -2,432 Descending FlightAware UK
Wed 10:04:54 AM 52.5782 -7.0541 290° West 482 555 30,500 4,286 Level FlightAware UK
Wed 10:04:57 AM 52.5790 -7.0560 290° West 433 498 32,000  Climbing FlightAware ADS-B
Wed 10:05:12 AM 52.5904 -7.1097 290° West 482 555 30,500 -2,727 Descending FlightAware UK
Wed 10:05:30 AM 52.6026 -7.1653 290° West 482 555 30,500 3,000 Level FlightAware UK
Wed 10:05:42 AM 52.6080 -7.1920 290° West 432 497 32,000  Climbing FlightAware ADS-B
Wed 10:06:00 AM 52.6227 -7.2574 290° West 484 557 30,500 -2,500 Descending FlightAware UK
Wed 10:06:18 AM 52.6347 -7.3131 290° West 482 555 30,500 4,091 Level FlightAware UK
Wed 10:06:22 AM 52.6350 -7.3160 290° West 430 495 32,000  Climbing FlightAware ADS-B
Wed 10:06:42 AM 52.6507 -7.3872 290° West 482 555 30,500 -2,368 Descending FlightAware UK
Wed 10:07:00 AM 52.6628 -7.4426 290° West 482 555 30,500 4,500 Level FlightAware UK
Wed 10:07:02 AM 52.6630 -7.4420 290° West 430 495 32,000  Climbing FlightAware ADS-B
Wed 10:07:18 AM 52.6747 -7.4982 290° West 482 555 30,500 -2,647 Descending FlightAware UK
Wed 10:07:36 AM 52.6865 -7.5537 289° West 482 555 30,500 3,103 Level FlightAware UK
Wed 10:07:47 AM 52.6930 -7.5840 289° West 430 495 32,000  Climbing FlightAware ADS-B
Wed 10:08:06 AM 52.7062 -7.6463 289° West 482 555 30,500 -2,432 Descending FlightAware UK
Wed 10:08:24 AM 52.7180 -7.7018 289° West 482 555 30,500 4,286 Level FlightAware UK
Wed 10:08:27 AM 52.7190 -7.7080 289° West 430 495 32,000  Climbing FlightAware ADS-B
Wed 10:08:42 AM 52.7298 -7.7574 289° West 482 555 30,500 -2,727 Descending FlightAware UK
Wed 10:09:00 AM 52.7416 -7.8129 289° West 482 555 30,500 4,500 Level FlightAware UK
Wed 10:09:02 AM 52.7400 -7.8000 289° West 430 495 32,000  Climbing FlightAware ADS-B
Wed 10:09:18 AM 52.7567 -7.8663 289° West 482 555 30,500 -2,647 Descending FlightAware UK
Wed 10:09:36 AM 52.7717 -7.9205 295° West 484 557 30,500 2,647 Level FlightAware UK
Wed 10:09:52 AM 52.7820 -7.9560 295° West 430 495 32,000  Climbing FlightAware ADS-B
Wed 10:10:12 AM 52.8011 -8.0279 295° West 484 557 30,500 -2,368 Descending FlightAware UK
Wed 10:10:30 AM 52.8158 -8.0817 294° West 482 555 30,500 4,500 Level FlightAware UK
Wed 10:10:32 AM 52.8140 -8.0760 294° West 429 494 32,000  Climbing FlightAware ADS-B
Wed 10:10:48 AM 52.8305 -8.1354 294° West 484 557 30,500 -1,941 Descending FlightAware UK
Wed 10:11:06 AM 52.8452 -8.1895 294° West 484 557 30,900 4,552 Climbing FlightAware UK
Wed 10:11:17 AM 52.8520 -8.2100 294° West 430 495 32,700 1,400 Climbing FlightAware ADS-B
Wed 10:11:36 AM 52.8702 -8.2790 294° West 484 557 31,600 -1,135 Descending FlightAware UK
Wed 10:11:54 AM 52.8850 -8.3328 294° West 482 555 32,000 5,429 Climbing FlightAware UK
Wed 10:11:57 AM 52.8840 -8.3290 294° West 427 491 33,500 1,000 Climbing FlightAware ADS-B
Wed 10:12:12 AM 52.8996 -8.3864 294° West 480 552 32,300 -1,455 Descending FlightAware UK
Wed 10:12:30 AM 52.9143 -8.4392 295° West 478 550 32,700 4,200 Climbing FlightAware UK
Wed 10:12:42 AM 52.9230 -8.4710 295° West 423 487 34,400 1,000 Climbing FlightAware ADS-B
Wed 10:13:00 AM 52.9386 -8.5278 295° West 478 550 33,200 -1,500 Descending FlightAware UK
Wed 10:13:18 AM 52.9532 -8.5806 295° West 476 548 33,500 4,909 Climbing FlightAware UK
Wed 10:13:22 AM 52.9550 -8.5860 295° West 423 487 35,000  Climbing FlightAware ADS-B
Wed 10:13:42 AM 52.9694 -8.6521 295° West 478 550 33,500 -2,368 Descending FlightAware UK
Wed 10:14:00 AM 52.9812 -8.7069 290° West 478 550 33,500 4,500 Level FlightAware UK
Wed 10:14:02 AM 52.9790 -8.6920 290° West 422 486 35,000  Climbing FlightAware ADS-B
Wed 10:14:18 AM 52.9933 -8.7615 290° West 478 550 33,500 -2,647 Descending FlightAware UK
Wed 10:14:36 AM 53.0046 -8.8164 289° West 478 550 33,500 3,103 Level FlightAware UK
Wed 10:14:47 AM 53.0100 -8.8440 289° West 419 482 35,000  Climbing FlightAware ADS-B
Wed 10:15:06 AM 53.0227 -8.9079 289° West 476 548 33,500 -2,432 Descending FlightAware UK
Wed 10:15:24 AM 53.0334 -8.9631 288° West 478 550 33,500 4,286 Level FlightAware UK
Wed 10:15:27 AM 53.0320 -8.9570 288° West 416 479 35,000 1,875 Climbing FlightAware ADS-B
Wed 10:16:12 AM 53.0580 -9.0950 287° West 415 478 35,000  Level FlightAware ADS-B
Wed 10:16:52 AM 53.0810 -9.2170 287° West 414 476 35,000  Level FlightAware ADS-B
Wed 10:17:32 AM 53.1030 -9.3390 287° West 413 475 35,000  Level FlightAware ADS-B
Wed 10:18:17 AM 53.1290 -9.4790 287° West 412 474 35,000  Level FlightAware ADS-B
Wed 10:19:12 AM 53.1600 -9.6440 287° West 411 473 35,000  Level FlightAware ADS-B
Wed 10:19:52 AM 53.1830 -9.7720 287° West 411 473 35,000  Level FlightAware ADS-B
Wed 10:20:37 AM 53.2080 -9.9120 287° West 411 473 35,000  Level FlightAware ADS-B
Wed 10:21:22 AM 53.2310 -10.0370 287° West 412 474 35,000  Level FlightAware ADS-B
Wed 10:22:02 AM 53.2530 -10.1620 286° West 412 474 35,000  Level FlightAware ADS-B
Wed 10:22:42 AM 53.2740 -10.2810 286° West 412 474 35,000  Level FlightAware ADS-B
Wed 10:23:27 AM 53.2980 -10.4180 286° West 411 473 35,000  Level FlightAware ADS-B
Wed 10:24:07 AM 53.3200 -10.5430 286° West 412 474 35,000  Level FlightAware ADS-B
Wed 10:24:47 AM 53.3410 -10.6650 286° West 412 474 35,000  Level FlightAware ADS-B
Wed 10:25:27 AM 53.3620 -10.7870 286° West 412 474 35,000  Level FlightAware ADS-B
Wed 10:26:12 AM 53.3860 -10.9250 286° West 410 472 35,000  Level FlightAware ADS-B
Wed 10:26:57 AM 53.4090 -11.0620 286° West 409 471 35,000  Level FlightAware ADS-B
Wed 10:27:37 AM 53.4300 -11.1840 286° West 410 472 35,000  Level FlightAware ADS-B
Wed 10:28:22 AM 53.4530 -11.3230 286° West 419 482 35,000  Level FlightAware ADS-B
Wed 10:29:02 AM 53.4740 -11.4520 285° West 422 486 35,000  Level FlightAware ADS-B
Wed 10:29:42 AM 53.4950 -11.5750 286° West 424 488 35,000  Level FlightAware ADS-B
Wed 10:30:27 AM 53.5180 -11.7220 285° West 427 491 35,000  Level FlightAware ADS-B
Wed 10:31:07 AM 53.5390 -11.8500 285° West 427 491 35,000  Level FlightAware ADS-B
Wed 10:31:47 AM 53.5600 -11.9780 285° West 428 493 35,000  Level FlightAware ADS-B
Wed 10:32:32 AM 53.5820 -12.1230 284° West 427 491 35,000  Level FlightAware ADS-B
Wed 10:33:12 AM 53.6030 -12.2490 286° West 428 493 35,000  Level FlightAware ADS-B
Wed 10:33:57 AM 53.6240 -12.3810 285° West 428 493 35,000  Level FlightAware ADS-B
Wed 10:34:37 AM 53.6460 -12.5240 285° West 427 491 35,000  Level FlightAware ADS-B
Wed 10:35:22 AM 53.6680 -12.6690 284° West 428 493 35,000  Level FlightAware ADS-B
Wed 10:36:17 AM 53.6960 -12.8520 285° West 429 494 35,000  Level FlightAware ADS-B
Wed 10:36:57 AM 53.7140 -12.9680 285° West 429 494 35,000  Level FlightAware ADS-B
Wed 10:37:32 AM 53.7310 -13.0860 284° West 429 494 35,000  Level FlightAware ADS-B
Wed 10:38:32 AM 53.7590 -13.2740 284° West 429 494 35,000  Level FlightAware ADS-B
Wed 10:39:17 AM 53.7830 -13.4350 284° West 428 493 35,000  Level FlightAware ADS-B
Wed 10:40:02 AM 53.8000 -13.5670 282° West 428 493 35,000  Level FlightAware ADS-B
Wed 10:40:32 AM 53.8100 -13.6500 282° West 428 493 35,000  Level FlightAware ADS-B
Wed 10:41:02 AM 53.8310 -13.7650 287° West 431 496 35,000  Level FlightAware ADS-B
Wed 10:41:37 AM 53.8450 -13.8710 283° West 431 496 35,000  Level FlightAware ADS-B
Wed 10:42:27 AM 53.8640 -14.0110 283° West 431 496 35,000  Level FlightAware ADS-B
Wed 10:43:07 AM 53.8790 -14.1230 283° West 431 496 35,000  Level FlightAware ADS-B
Wed 10:43:47 AM 53.8950 -14.2350 284° West 431 496 35,000  Level FlightAware ADS-B
Wed 10:44:27 AM 53.9100 -14.3470 283° West 431 496 35,000  Level FlightAware ADS-B
Wed 10:45:07 AM 53.9250 -14.4600 283° West 431 496 35,000  Level FlightAware ADS-B
Wed 10:45:57 AM 53.9440 -14.6000 283° West 431 496 35,000  Level FlightAware ADS-B
Wed 10:46:37 AM 53.9590 -14.7120 283° West 431 496 35,000  Level FlightAware ADS-B
Wed 10:47:17 AM 53.9750 -14.8240 284° West 431 496 35,000  Level FlightAware ADS-B
Wed 10:47:57 AM 53.9900 -14.9370 283° West 431 496 35,000  Level FlightAware ADS-B
Wed 10:48:37 AM 54.0050 -15.0490 283° West 431 496 35,000  Level FlightAware ADS-B
Wed 10:49:27 AM 54.0240 -15.1900 283° West 431 496 35,000  Level FlightAware ADS-B
Wed 10:50:07 AM 54.0390 -15.3020 283° West 431 496 35,000  Level FlightAware ADS-B
Wed 10:50:47 AM 54.0550 -15.4150 284° West 431 496 35,000  Level FlightAware ADS-B
Wed 10:53:00 AM 54.0860 -15.8743 277° West  Level Estimated
Wed 10:54:00 AM 54.0994 -16.0817 276° West  Level Estimated
Wed 10:55:00 AM 54.1125 -16.2893 276° West  Level Estimated
Wed 10:56:00 AM 54.1252 -16.4969 276° West  Level Estimated
Wed 10:57:00 AM 54.1376 -16.7048 276° West  Level Estimated
Wed 10:58:00 AM 54.1496 -16.9127 276° West  Level Estimated
Wed 10:59:00 AM 54.1612 -17.1207 276° West  Level Estimated
Wed 11:00:00 AM 54.1725 -17.3289 275° West  Level Estimated
Wed 11:01:00 AM 54.1834 -17.5372 275° West  Level Estimated
Wed 11:02:00 AM 54.1940 -17.7455 275° West  Level Estimated
Wed 11:03:00 AM 54.2042 -17.9540 275° West  Level Estimated
Wed 11:04:00 AM 54.2140 -18.1626 275° West  Level Estimated
Wed 11:05:00 AM 54.2235 -18.3713 275° West  Level Estimated
Wed 11:06:00 AM 54.2326 -18.5801 274° West  Level Estimated
Wed 11:07:00 AM 54.2414 -18.7890 274° West  Level Estimated
Wed 11:08:00 AM 54.2498 -18.9979 274° West  Level Estimated
Wed 11:09:00 AM 54.2578 -19.2070 274° West  Level Estimated
Wed 11:10:00 AM 54.2655 -19.4161 274° West  Level Estimated
Wed 11:11:00 AM 54.2728 -19.6253 274° West  Level Estimated
Wed 11:12:00 AM 54.2797 -19.8346 273° West  Level Estimated
Wed 11:13:00 AM 54.2863 -20.0439 273° West  Level Estimated
Wed 11:14:00 AM 54.2925 -20.2533 273° West  Level Estimated
Wed 11:15:00 AM 54.2984 -20.4627 273° West  Level Estimated
Wed 11:16:00 AM 54.3039 -20.6723 273° West  Level Estimated
Wed 11:16:45 AM 55.0000 -20.0000 284° West 422 486 35,000  Level ETMS Enhanced Traffic Management System
Wed 11:17:00 AM 54.3090 -20.8818 272° West  Level Estimated
Wed 11:18:00 AM 54.3138 -21.0915 272° West  Level Estimated
Wed 11:19:00 AM 54.3182 -21.3011 272° West  Level Estimated
Wed 11:20:00 AM 54.3223 -21.5109 272° West  Level Estimated
Wed 11:21:00 AM 54.3259 -21.7206 272° West  Level Estimated
Wed 11:22:00 AM 55.2183 -21.5951 283° West 422 486 35,000  Level FlightAware Transoceanic
Wed 11:23:00 AM 55.2442 -21.7957 283° West 422 486 35,000  Level FlightAware Transoceanic
Wed 11:24:00 AM 55.2697 -21.9966 282° West 422 486 35,000  Level FlightAware Transoceanic
Wed 11:25:00 AM 55.2948 -22.1977 282° West 422 486 35,000  Level FlightAware Transoceanic
Wed 11:26:00 AM 55.3197 -22.3991 282° West 422 486 35,000  Level FlightAware Transoceanic
Wed 11:27:00 AM 55.3442 -22.6007 282° West 422 486 35,000  Level FlightAware Transoceanic
Wed 11:28:00 AM 55.3683 -22.8025 282° West 422 486 35,000  Level FlightAware Transoceanic
Wed 11:29:00 AM 55.3922 -23.0047 282° West 422 486 35,000  Level FlightAware Transoceanic
Wed 11:30:00 AM 55.4157 -23.2070 281° West 422 486 35,000  Level FlightAware Transoceanic
Wed 11:31:00 AM 55.4388 -23.4096 281° West 422 486 35,000  Level FlightAware Transoceanic
Wed 11:32:00 AM 55.4617 -23.6124 281° West 422 486 35,000  Level FlightAware Transoceanic
Wed 11:33:00 AM 55.4842 -23.8155 281° West 422 486 35,000  Level FlightAware Transoceanic
Wed 11:34:00 AM 55.5063 -24.0188 281° West 422 486 35,000  Level FlightAware Transoceanic
Wed 11:35:00 AM 55.5282 -24.2223 281° West 422 486 35,000  Level FlightAware Transoceanic
Wed 11:36:00 AM 55.5496 -24.4260 280° West 422 486 35,000  Level FlightAware Transoceanic
Wed 11:37:00 AM 55.5708 -24.6300 280° West 422 486 35,000  Level FlightAware Transoceanic
Wed 11:38:00 AM 55.5916 -24.8342 280° West 422 486 35,000  Level FlightAware Transoceanic
Wed 11:39:00 AM 55.6121 -25.0386 280° West 422 486 35,000  Level FlightAware Transoceanic
Wed 11:40:00 AM 55.6322 -25.2432 280° West 422 486 35,000  Level FlightAware Transoceanic
Wed 11:41:00 AM 55.6520 -25.4480 280° West 422 486 35,000  Level FlightAware Transoceanic
Wed 11:42:00 AM 55.6714 -25.6530 279° West 422 486 35,000  Level FlightAware Transoceanic
Wed 11:43:00 AM 55.6905 -25.8582 279° West 422 486 35,000  Level FlightAware Transoceanic
Wed 11:44:00 AM 55.7093 -26.0637 279° West 422 486 35,000  Level FlightAware Transoceanic
Wed 11:45:00 AM 55.7277 -26.2693 279° West 422 486 35,000  Level FlightAware Transoceanic
Wed 11:46:00 AM 55.7458 -26.4751 279° West 422 486 35,000  Level FlightAware Transoceanic
Wed 11:47:00 AM 55.7635 -26.6811 279° West 422 486 35,000  Level FlightAware Transoceanic
Wed 11:48:00 AM 55.7809 -26.8873 278° West 422 486 35,000  Level FlightAware Transoceanic
Wed 11:49:00 AM 55.7980 -27.0937 278° West 422 486 35,000  Level FlightAware Transoceanic
Wed 11:50:00 AM 55.8147 -27.3002 278° West 422 486 35,000  Level FlightAware Transoceanic
Wed 11:51:00 AM 55.8310 -27.5069 278° West 422 486 35,000  Level FlightAware Transoceanic
Wed 11:52:00 AM 55.8470 -27.7138 278° West 422 486 35,000  Level FlightAware Transoceanic
Wed 11:53:00 AM 55.8627 -27.9209 278° West 422 486 35,000  Level FlightAware Transoceanic
Wed 11:54:00 AM 55.8780 -28.1281 277° West 422 486 35,000  Level FlightAware Transoceanic
Wed 11:55:00 AM 55.8929 -28.3355 277° West 422 486 35,000  Level FlightAware Transoceanic
Wed 11:56:00 AM 55.9075 -28.5430 277° West 422 486 35,000  Level FlightAware Transoceanic
Wed 11:57:00 AM 55.9218 -28.7507 277° West 422 486 35,000  Level FlightAware Transoceanic
Wed 11:58:00 AM 55.9357 -28.9586 277° West 422 486 35,000  Level FlightAware Transoceanic
Wed 11:59:00 AM 55.9493 -29.1666 277° West 422 486 35,000  Level FlightAware Transoceanic
Wed 12:00:00 PM 55.9625 -29.3747 276° West 422 486 35,000  Level FlightAware Transoceanic
Wed 12:01:00 PM 55.9753 -29.5830 276° West 422 486 35,000  Level FlightAware Transoceanic
Wed 12:02:00 PM 55.9878 -29.7915 276° West 422 486 35,000  Level FlightAware Transoceanic
Wed 12:03:00 PM 55.9752 -30.0090 264° West  Level Estimated
Wed 12:04:00 PM 55.9621 -30.2265 264° West  Level Estimated
Wed 12:04:48 PM 56.0000 -30.0000 274° West 457 526 35,000  Level ETMS Enhanced Traffic Management System
Wed 12:05:00 PM 55.9487 -30.4438 264° West  Level Estimated
Wed 12:06:00 PM 55.9349 -30.6609 264° West  Level Estimated
Wed 12:07:00 PM 55.9207 -30.8779 263° West  Level Estimated
Wed 12:08:00 PM 55.9061 -31.0947 263° West  Level Estimated
Wed 12:09:00 PM 55.8911 -31.3113 263° West  Level Estimated
Wed 12:10:00 PM 56.0541 -31.5877 273° West 457 526 35,000  Level FlightAware Transoceanic
Wed 12:11:00 PM 56.0602 -31.8149 273° West 457 526 35,000  Level FlightAware Transoceanic
Wed 12:12:00 PM 56.0658 -32.0421 272° West 457 526 35,000  Level FlightAware Transoceanic
Wed 12:13:00 PM 56.0711 -32.2694 272° West 457 526 35,000  Level FlightAware Transoceanic
Wed 12:14:00 PM 56.0759 -32.4967 272° West 457 526 35,000  Level FlightAware Transoceanic
Wed 12:15:00 PM 56.0803 -32.7241 272° West 457 526 35,000  Level FlightAware Transoceanic
Wed 12:16:00 PM 56.0842 -32.9516 272° West 457 526 35,000  Level FlightAware Transoceanic
Wed 12:17:00 PM 56.0878 -33.1791 272° West 457 526 35,000  Level FlightAware Transoceanic
Wed 12:18:00 PM 56.0909 -33.4066 271° West 457 526 35,000  Level FlightAware Transoceanic
Wed 12:19:00 PM 56.0937 -33.6342 271° West 457 526 35,000  Level FlightAware Transoceanic
Wed 12:20:00 PM 56.0960 -33.8618 271° West 457 526 35,000  Level FlightAware Transoceanic
Wed 12:21:00 PM 56.0979 -34.0894 271° West 457 526 35,000  Level FlightAware Transoceanic
Wed 12:22:00 PM 56.0993 -34.3170 271° West 457 526 35,000  Level FlightAware Transoceanic
Wed 12:23:00 PM 56.1004 -34.5447 270° West 457 526 35,000  Level FlightAware Transoceanic
Wed 12:24:00 PM 56.1010 -34.7723 270° West 457 526 35,000  Level FlightAware Transoceanic
Wed 12:25:00 PM 56.1012 -35.0000 270° West 457 526 35,000  Level FlightAware Transoceanic
Wed 12:26:00 PM 56.1010 -35.2277 270° West 457 526 35,000  Level FlightAware Transoceanic
Wed 12:27:00 PM 56.1004 -35.4553 270° West 457 526 35,000  Level FlightAware Transoceanic
Wed 12:28:00 PM 56.0993 -35.6830 269° West 457 526 35,000  Level FlightAware Transoceanic
Wed 12:29:00 PM 56.0979 -35.9106 269° West 457 526 35,000  Level FlightAware Transoceanic
Wed 12:30:00 PM 56.0960 -36.1382 269° West 457 526 35,000  Level FlightAware Transoceanic
Wed 12:31:00 PM 56.0937 -36.3658 269° West 457 526 35,000  Level FlightAware Transoceanic
Wed 12:32:00 PM 56.0909 -36.5934 269° West 457 526 35,000  Level FlightAware Transoceanic
Wed 12:33:00 PM 56.0878 -36.8209 268° West 457 526 35,000  Level FlightAware Transoceanic
Wed 12:34:00 PM 56.0842 -37.0484 268° West 457 526 35,000  Level FlightAware Transoceanic
Wed 12:35:00 PM 56.0803 -37.2759 268° West 457 526 35,000  Level FlightAware Transoceanic
Wed 12:36:00 PM 56.0759 -37.5033 268° West 457 526 35,000  Level FlightAware Transoceanic
Wed 12:37:00 PM 56.0711 -37.7306 268° West 457 526 35,000  Level FlightAware Transoceanic
Wed 12:38:00 PM 56.0658 -37.9579 268° West 457 526 35,000  Level FlightAware Transoceanic
Wed 12:39:00 PM 56.0602 -38.1851 267° West 457 526 35,000  Level FlightAware Transoceanic
Wed 12:40:00 PM 56.0541 -38.4123 267° West 457 526 35,000  Level FlightAware Transoceanic
Wed 12:41:00 PM 56.0476 -38.6394 267° West 457 526 35,000  Level FlightAware Transoceanic
Wed 12:42:00 PM 56.0407 -38.8664 267° West 457 526 35,000  Level FlightAware Transoceanic
Wed 12:43:00 PM 56.0334 -39.0933 267° West 457 526 35,000  Level FlightAware Transoceanic
Wed 12:44:00 PM 56.0257 -39.3201 266° West 457 526 35,000  Level FlightAware Transoceanic
Wed 12:45:00 PM 56.0175 -39.5468 266° West 457 526 35,000  Level FlightAware Transoceanic
Wed 12:46:00 PM 56.0090 -39.7735 266° West 457 526 35,000  Level FlightAware Transoceanic
Wed 12:47:00 PM 55.9777 -39.9850 255° West  Level Estimated
Wed 12:48:00 PM 55.9460 -40.1962 255° West  Level Estimated
Wed 12:49:00 PM 55.9140 -40.4071 255° West  Level Estimated
Wed 12:50:00 PM 55.8816 -40.6176 255° West  Level Estimated
Wed 12:50:00 PM 56.0000 -40.0000 255° West 485 558 35,000  Level ETMS Enhanced Traffic Management System
Wed 12:50:47 PM 56.0000 -40.0000 255° West 485 558 35,000  Level ETMS Enhanced Traffic Management System
Wed 12:51:00 PM 55.8489 -40.8277 255° West  Level Estimated
Wed 12:52:00 PM 55.8158 -41.0375 254° West  Level Estimated
Wed 12:53:00 PM 55.7823 -41.2470 254° West  Level Estimated
Wed 12:54:00 PM 55.7485 -41.4560 254° West  Level Estimated
Wed 12:55:00 PM 55.7144 -41.6647 254° West  Level Estimated
Wed 12:56:00 PM 55.6667 -42.0779 253° West 485 558 35,000  Level FlightAware Transoceanic
Wed 12:57:00 PM 55.6275 -42.3066 253° West 485 558 35,000  Level FlightAware Transoceanic
Wed 12:58:00 PM 55.5880 -42.5348 253° West 485 558 35,000  Level FlightAware Transoceanic
Wed 12:59:00 PM 55.5479 -42.7625 253° West 485 558 35,000  Level FlightAware Transoceanic
Wed 01:00:00 PM 55.5075 -42.9898 252° West 485 558 35,000  Level FlightAware Transoceanic
Wed 01:01:00 PM 55.4666 -43.2166 252° West 485 558 35,000  Level FlightAware Transoceanic
Wed 01:02:00 PM 55.4253 -43.4429 252° West 485 558 35,000  Level FlightAware Transoceanic
Wed 01:03:00 PM 55.3836 -43.6687 252° West 485 558 35,000  Level FlightAware Transoceanic
Wed 01:04:00 PM 55.3415 -43.8941 252° West 485 558 35,000  Level FlightAware Transoceanic
Wed 01:05:00 PM 55.2990 -44.1190 252° West 485 558 35,000  Level FlightAware Transoceanic
Wed 01:06:00 PM 55.2560 -44.3434 251° West 485 558 35,000  Level FlightAware Transoceanic
Wed 01:07:00 PM 55.2127 -44.5673 251° West 485 558 35,000  Level FlightAware Transoceanic
Wed 01:08:00 PM 55.1689 -44.7907 251° West 485 558 35,000  Level FlightAware Transoceanic
Wed 01:09:00 PM 55.1247 -45.0137 251° West 485 558 35,000  Level FlightAware Transoceanic
Wed 01:10:00 PM 55.0802 -45.2361 251° West 485 558 35,000  Level FlightAware Transoceanic
Wed 01:11:00 PM 55.0352 -45.4581 250° West 485 558 35,000  Level FlightAware Transoceanic
Wed 01:12:00 PM 54.9898 -45.6795 250° West 485 558 35,000  Level FlightAware Transoceanic
Wed 01:13:00 PM 54.9440 -45.9004 250° West 485 558 35,000  Level FlightAware Transoceanic
Wed 01:14:00 PM 54.8978 -46.1209 250° West 485 558 35,000  Level FlightAware Transoceanic
Wed 01:15:00 PM 54.8512 -46.3408 250° West 485 558 35,000  Level FlightAware Transoceanic
Wed 01:16:00 PM 54.8043 -46.5602 250° West 485 558 35,000  Level FlightAware Transoceanic
Wed 01:17:00 PM 54.7569 -46.7791 249° West 485 558 35,000  Level FlightAware Transoceanic
Wed 01:18:00 PM 54.7091 -46.9975 249° West 485 558 35,000  Level FlightAware Transoceanic
Wed 01:19:00 PM 54.6610 -47.2154 249° West 485 558 35,000  Level FlightAware Transoceanic
Wed 01:20:00 PM 54.6124 -47.4328 249° West 485 558 35,000  Level FlightAware Transoceanic
Wed 01:21:00 PM 54.5635 -47.6496 249° West 485 558 35,000  Level FlightAware Transoceanic
Wed 01:22:00 PM 54.5141 -47.8659 248° West 485 558 35,000  Level FlightAware Transoceanic
Wed 01:23:00 PM 54.4644 -48.0817 248° West 485 558 35,000  Level FlightAware Transoceanic
Wed 01:24:00 PM 54.4143 -48.2970 248° West 485 558 35,000  Level FlightAware Transoceanic
Wed 01:25:00 PM 54.3639 -48.5117 248° West 485 558 35,000  Level FlightAware Transoceanic
Wed 01:26:00 PM 54.3130 -48.7259 248° West 485 558 35,000  Level FlightAware Transoceanic
Wed 01:27:00 PM 54.2618 -48.9396 248° West 485 558 35,000  Level FlightAware Transoceanic
Wed 01:28:00 PM 54.2102 -49.1528 247° West 485 558 35,000  Level FlightAware Transoceanic
Wed 01:29:00 PM 54.1582 -49.3654 247° West 485 558 35,000  Level FlightAware Transoceanic
Wed 01:30:00 PM 54.1058 -49.5774 247° West 485 558 35,000  Level FlightAware Transoceanic
Wed 01:31:00 PM 54.0531 -49.7890 247° West 485 558 35,000  Level FlightAware Transoceanic
Wed 01:32:00 PM 54.0020 -49.9937 247° West  Level Estimated
Wed 01:33:00 PM 53.9505 -50.1979 247° West  Level Estimated
Wed 01:34:00 PM 53.8987 -50.4016 247° West  Level Estimated
Wed 01:35:00 PM 53.8465 -50.6048 247° West  Level Estimated
Wed 01:36:00 PM 53.7940 -50.8074 246° West  Level Estimated
Wed 01:37:00 PM 53.7412 -51.0096 246° West  Level Estimated
Wed 01:38:00 PM 53.6880 -51.2113 246° West  Level Estimated
Wed 01:39:00 PM 53.6345 -51.4124 246° West  Level Estimated
Wed 01:40:00 PM 53.5807 -51.6131 246° West  Level Estimated
Wed 01:41:00 PM 53.5265 -51.8132 246° West  Level Estimated
Wed 01:42:00 PM 53.4719 -52.0128 245° Southwest  Level Estimated
Wed 01:42:41 PM 54.0000 -50.0000 251° West 518 596 35,000  Level ETMS Enhanced Traffic Management System
Wed 01:43:00 PM 53.4171 -52.2119 245° Southwest  Level Estimated
Wed 01:44:00 PM 53.3619 -52.4105 245° Southwest  Level Estimated
Wed 01:45:00 PM 53.3064 -52.6085 245° Southwest  Level Estimated
Wed 01:46:00 PM 53.2506 -52.8061 245° Southwest  Level Estimated
Wed 01:47:00 PM 53.1944 -53.0031 245° Southwest  Level Estimated
Wed 01:48:00 PM 53.1771 -53.6237 248° West 518 596 35,000  Level FlightAware Transoceanic
Wed 01:49:00 PM 53.1221 -53.8455 247° West 518 596 35,000  Level FlightAware Transoceanic
Wed 01:50:00 PM 53.0639 -54.0403 244° Southwest  Level Estimated
Wed 01:51:00 PM 53.0055 -54.2346 243° Southwest  Level Estimated
Wed 01:51:07 PM 53.0333 -54.1833 242° Southwest 240 276 35,000  Level Gander Center
Wed 01:52:00 PM 52.9467 -54.4284 243° Southwest  Level Estimated
Wed 01:52:07 PM 52.9667 -54.3833 241° Southwest 530 610 35,000  Level Gander Center
Wed 01:53:00 PM 52.8876 -54.6217 243° Southwest  Level Estimated
Wed 01:53:07 PM 52.9000 -54.6000 243° Southwest 530 610 35,000  Level Gander Center
Wed 01:54:00 PM 52.8282 -54.8144 243° Southwest  Level Estimated
Wed 01:54:07 PM 52.8167 -54.8333 239° Southwest 510 587 35,000  Level Gander Center
Wed 01:55:00 PM 52.7666 -55.0055 242° Southwest  Level FlightAware Approximate
Wed 01:55:07 PM 52.7500 -55.0333 241° Southwest 520 598 35,000  Level Gander Center
Wed 01:56:00 PM 52.7046 -55.1961 242° Southwest  Level FlightAware Approximate
Wed 01:56:07 PM 52.6833 -55.2333 241° Southwest 510 587 35,000  Level Gander Center
Wed 01:56:28 PM 52.6500 -55.3167 237° Southwest 520 598 35,000  Level Moncton Center
Wed 01:57:28 PM 52.5833 -55.5167 241° Southwest 520 598 35,000  Level Moncton Center
Wed 01:58:07 PM 52.5333 -55.6667 241° Southwest 510 587 35,000  Level Gander Center
Wed 01:59:07 PM 52.4667 -55.8667 241° Southwest 520 598 35,000  Level Gander Center
Wed 01:59:28 PM 52.4500 -55.9333 248° West 520 598 35,000  Level Moncton Center
Wed 02:00:28 PM 52.3667 -56.1333 236° Southwest 510 587 35,000  Level Moncton Center
Wed 02:01:28 PM 52.3000 -56.3167 239° Southwest 520 598 35,000  Level Moncton Center
Wed 02:02:07 PM 52.2500 -56.4667 241° Southwest 520 598 35,000  Level Gander Center
Wed 02:03:07 PM 52.1667 -56.6667 236° Southwest 520 598 35,000  Level Gander Center
Wed 02:03:28 PM 52.1500 -56.7333 248° West 520 598 35,000  Level Moncton Center
Wed 02:04:00 PM 52.1167 -56.8500 245° Southwest 520 598 35,000  Level Gander Center
Wed 02:05:00 PM 52.0333 -57.0333 234° Southwest 520 598 35,000  Level Gander Center
Wed 02:05:28 PM 52.0000 -57.1333 242° Southwest 520 598 35,000  Level Moncton Center
Wed 02:06:28 PM 51.9333 -57.3333 242° Southwest 510 587 35,000  Level Moncton Center
Wed 02:07:07 PM 51.8833 -57.4667 239° Southwest 520 598 35,000  Level Gander Center
Wed 02:07:28 PM 51.8333 -57.5333 219° Southwest 520 598 35,000  Level Moncton Center
Wed 02:08:07 PM 51.8000 -57.6833 250° West 520 598 35,000  Level Gander Center
Wed 02:09:07 PM 51.7333 -57.8833 242° Southwest 530 610 35,000  Level Gander Center
Wed 02:10:07 PM 51.6500 -58.0667 234° Southwest 520 598 35,000  Level Gander Center
Wed 02:10:28 PM 51.6167 -58.1333 231° Southwest 520 598 35,000  Level Moncton Center
Wed 02:11:28 PM 51.5500 -58.3333 242° Southwest 520 598 35,000  Level Moncton Center
Wed 02:12:07 PM 51.4833 -58.4667 231° Southwest 520 598 35,000  Level Gander Center
Wed 02:13:07 PM 51.4167 -58.6500 240° Southwest 520 598 35,000  Level Gander Center
Wed 02:14:07 PM 51.3333 -58.8667 238° Southwest 510 587 35,000  Level Gander Center
Wed 02:15:07 PM 51.2500 -59.0667 236° Southwest 520 598 35,000  Level Gander Center
Wed 02:16:07 PM 51.1833 -59.2333 238° Southwest 520 598 35,000  Level Gander Center
Wed 02:17:07 PM 51.0833 -59.4500 234° Southwest 520 598 35,000  Level Gander Center
Wed 02:18:07 PM 51.0333 -59.6333 247° West 520 598 35,000  Level Gander Center
Wed 02:19:07 PM 50.9500 -59.8167 234° Southwest 520 598 35,000  Level Gander Center
Wed 02:20:07 PM 50.8667 -60.0167 237° Southwest 520 598 35,000  Level Gander Center
Wed 02:21:07 PM 50.7833 -60.2167 237° Southwest 520 598 35,000  Level Gander Center
Wed 02:22:07 PM 50.7000 -60.3833 232° Southwest 510 587 35,000  Level Gander Center
Wed 02:23:07 PM 50.6167 -60.5667 234° Southwest 520 598 35,000 350 Level Gander Center
Wed 02:24:07 PM 50.5333 -60.7833 239° Southwest 520 598 35,700 1,050 Climbing Gander Center
Wed 02:25:07 PM 50.4667 -60.9667 240° Southwest 520 598 37,100 1,100 Climbing Gander Center
Wed 02:26:07 PM 50.3667 -61.1500 230° Southwest 520 598 37,900 450 Climbing Gander Center
Wed 02:27:07 PM 50.3000 -61.3333 240° Southwest 520 598 38,000 50 Climbing Gander Center
Wed 02:28:07 PM 50.2167 -61.5167 235° Southwest 520 598 38,000  Level Gander Center
Wed 02:29:07 PM 50.1333 -61.7000 235° Southwest 520 598 38,000  Level Gander Center
Wed 02:29:28 PM 50.1167 -61.7667 249° West 520 598 38,000  Level Moncton Center
Wed 02:30:07 PM 50.0500 -61.9000 232° Southwest 520 598 38,000  Level Gander Center
Wed 02:31:07 PM 49.9667 -62.0833 235° Southwest 520 598 38,000  Level Gander Center
Wed 02:32:07 PM 49.8833 -62.2667 235° Southwest 520 598 38,000  Level Gander Center
Wed 02:33:07 PM 49.8000 -62.4500 235° Southwest 520 598 38,000  Level Gander Center
Wed 02:33:28 PM 49.7667 -62.5000 224° Southwest 520 598 38,000  Level Moncton Center
Wed 02:34:07 PM 49.7167 -62.6333 240° Southwest 520 598 38,000  Level Gander Center
Wed 02:34:28 PM 49.6833 -62.6833 224° Southwest 520 598 38,000  Level Moncton Center
Wed 02:35:28 PM 49.6000 -62.8667 235° Southwest 520 598 38,000  Level Moncton Center
Wed 02:36:07 PM 49.5333 -62.9833 229° Southwest 520 598 38,000  Level Gander Center
Wed 02:37:07 PM 49.4500 -63.1833 237° Southwest 520 598 38,000  Level Gander Center
Wed 02:38:07 PM 49.3833 -63.3667 241° Southwest 520 598 38,000  Level Gander Center
Wed 02:38:28 PM 49.3500 -63.4167 224° Southwest 520 598 38,000  Level Moncton Center
Wed 02:39:07 PM 49.3000 -63.5333 237° Southwest 520 598 38,000  Level Gander Center
Wed 02:40:28 PM 49.1667 -63.7833 231° Southwest 520 598 38,000  Level Moncton Center
Wed 02:41:28 PM 49.0833 -63.9667 235° Southwest 520 598 38,000  Level Moncton Center
Wed 02:42:28 PM 49.0000 -64.1500 235° Southwest 520 598 38,000  Level Moncton Center
Wed 02:43:28 PM 48.9167 -64.3000 230° Southwest 520 598 38,000  Level Moncton Center
Wed 02:44:28 PM 48.8167 -64.5000 233° Southwest 520 598 38,000  Level Moncton Center
Wed 02:45:28 PM 48.7333 -64.6500 230° Southwest 530 610 38,000  Level Moncton Center
Wed 02:46:28 PM 48.6500 -64.8500 238° Southwest 530 610 38,000  Level Moncton Center
Wed 02:47:28 PM 48.5667 -65.0333 236° Southwest 530 610 38,000  Level Moncton Center
Wed 02:48:28 PM 48.4667 -65.2000 228° Southwest 540 621 38,000  Level Moncton Center
Wed 02:49:28 PM 48.3833 -65.3833 236° Southwest 530 610 38,000  Level Moncton Center
Wed 02:50:28 PM 48.3000 -65.5500 233° Southwest 540 621 38,000  Level Moncton Center
Wed 02:51:28 PM 48.2000 -65.7333 231° Southwest 540 621 38,000  Level Moncton Center
Wed 02:52:28 PM 48.1000 -65.9333 233° Southwest 540 621 38,000  Level Moncton Center
Wed 02:53:28 PM 48.0000 -66.0667 222° Southwest 540 621 38,000  Level Moncton Center
Wed 02:54:28 PM 47.9167 -66.2667 238° Southwest 540 621 38,000  Level Moncton Center
Wed 02:55:28 PM 47.8333 -66.4500 236° Southwest 540 621 38,000  Level Moncton Center
Wed 02:56:28 PM 47.7333 -66.6167 228° Southwest 540 621 38,000  Level Moncton Center
Wed 02:57:28 PM 47.6333 -66.7833 228° Southwest 540 621 38,000  Level Moncton Center
Wed 02:58:28 PM 47.5333 -66.9833 234° Southwest 540 621 38,000  Level Moncton Center
Wed 03:03:42 PM 47.0870 -67.9150 234° Southwest 544 626 38,000  Level FlightAware ADS-B
Wed 03:04:17 PM 47.0360 -68.0200 235° Southwest 544 626 38,000  Level FlightAware ADS-B
Wed 03:05:22 PM 46.9460 -68.2070 235° Southwest 543 625 38,000  Level FlightAware ADS-B
Wed 03:06:02 PM 46.8910 -68.3240 236° Southwest 542 624 38,000  Level FlightAware ADS-B
Wed 03:06:42 PM 46.8280 -68.4550 235° Southwest 541 623 38,000  Level FlightAware ADS-B
Wed 03:07:27 PM 46.7700 -68.5740 235° Southwest 541 623 38,000  Level FlightAware ADS-B
Wed 03:08:22 PM 46.6890 -68.7410 235° Southwest 542 624 38,000  Level FlightAware ADS-B
Wed 03:09:02 PM 46.6260 -68.8680 234° Southwest 542 624 38,000  Level FlightAware ADS-B
Wed 03:09:47 PM 46.5600 -69.0010 234° Southwest 542 624 38,000  Level FlightAware ADS-B
Wed 03:10:27 PM 46.5020 -69.1190 234° Southwest 543 625 38,000  Level FlightAware ADS-B
Wed 03:11:12 PM 46.4360 -69.2540 235° Southwest 543 625 38,000  Level FlightAware ADS-B
Wed 03:11:52 PM 46.3770 -69.3690 233° Southwest 542 624 38,000  Level FlightAware ADS-B
Wed 03:12:32 PM 46.3190 -69.4860 234° Southwest 542 624 38,000  Level FlightAware ADS-B
Wed 03:13:17 PM 46.2530 -69.6170 234° Southwest 540 621 38,000  Level FlightAware ADS-B
Wed 03:13:57 PM 46.1940 -69.7360 234° Southwest 539 620 38,000  Level FlightAware ADS-B
Wed 03:14:42 PM 46.1280 -69.8660 234° Southwest 537 618 38,000  Level FlightAware ADS-B
Wed 03:15:22 PM 46.0700 -69.9780 233° Southwest 536 617 38,000  Level FlightAware ADS-B
Wed 03:16:02 PM 46.0110 -70.0930 234° Southwest 535 616 38,000  Level FlightAware ADS-B
Wed 03:16:47 PM 45.9450 -70.2240 234° Southwest 535 616 38,000  Level FlightAware ADS-B
Wed 03:17:27 PM 45.8860 -70.3370 233° Southwest 536 617 38,000  Level FlightAware ADS-B
Wed 03:18:12 PM 45.8200 -70.4650 234° Southwest 536 617 38,000  Level FlightAware ADS-B
Wed 03:18:52 PM 45.7610 -70.5760 233° Southwest 535 616 38,000  Level FlightAware ADS-B
Wed 03:19:32 PM 45.7020 -70.6890 233° Southwest 535 616 38,000  Level FlightAware ADS-B
Wed 03:20:12 PM 45.6430 -70.8010 233° Southwest 534 615 38,000  Level FlightAware ADS-B
Wed 03:20:57 PM 45.5760 -70.9280 233° Southwest 533 613 38,000  Level FlightAware ADS-B
Wed 03:21:42 PM 45.5100 -71.0530 233° Southwest 533 613 38,000  Level FlightAware ADS-B
Wed 03:22:22 PM 45.4500 -71.1680 233° Southwest 532 612 38,000  Level FlightAware ADS-B
Wed 03:23:02 PM 45.3910 -71.2760 232° Southwest 533 613 38,000  Level FlightAware ADS-B
Wed 03:23:47 PM 45.3240 -71.4010 233° Southwest 533 613 38,000  Level FlightAware ADS-B
Wed 03:24:27 PM 45.2650 -71.5120 233° Southwest 533 613 38,000  Level FlightAware ADS-B
Wed 03:25:12 PM 45.1970 -71.6390 233° Southwest 531 611 38,000  Level FlightAware ADS-B
Wed 03:25:52 PM 45.1370 -71.7460 232° Southwest 531 611 38,000  Level FlightAware ADS-B
Wed 03:26:32 PM 45.0840 -71.8450 233° Southwest 531 611 38,000  Level FlightAware ADS-B
Wed 03:27:17 PM 45.0120 -71.9800 233° Southwest 526 605 38,000  Level FlightAware ADS-B
Wed 03:27:57 PM 44.9590 -72.0980 238° Southwest 522 601 38,000  Level FlightAware ADS-B
Wed 03:28:42 PM 44.9060 -72.2280 240° Southwest 521 600 38,000  Level FlightAware ADS-B
Wed 03:29:12 PM 44.8710 -72.3140 240° Southwest 521 600 38,000  Level FlightAware ADS-B
Wed 03:30:02 PM 44.8080 -72.4690 240° Southwest 521 600 38,000  Level FlightAware ADS-B
Wed 03:30:47 PM 44.7550 -72.5950 239° Southwest 522 601 38,000  Level FlightAware ADS-B
Wed 03:31:27 PM 44.7060 -72.7150 240° Southwest 521 600 38,000  Level FlightAware ADS-B
Wed 03:32:12 PM 44.6500 -72.8460 239° Southwest 521 600 38,000  Level FlightAware ADS-B
Wed 03:32:52 PM 44.6030 -72.9630 241° Southwest 520 598 38,000  Level FlightAware ADS-B
Wed 03:33:32 PM 44.5530 -73.0790 239° Southwest 520 598 38,000  Level FlightAware ADS-B
Wed 03:34:07 PM 44.5110 -73.1800 240° Southwest 521 600 38,000  Level FlightAware ADS-B
Wed 03:34:52 PM 44.4540 -73.3130 239° Southwest 520 598 38,000  Level FlightAware ADS-B
Wed 03:35:32 PM 44.4050 -73.4290 239° Southwest 520 598 38,000  Level FlightAware ADS-B
Wed 03:36:17 PM 44.3510 -73.5560 239° Southwest 519 597 38,000  Level FlightAware ADS-B
Wed 03:36:57 PM 44.3000 -73.6700 238° Southwest 518 596 38,000  Level FlightAware ADS-B
Wed 03:37:37 PM 44.2510 -73.7850 239° Southwest 518 596 38,000  Level FlightAware ADS-B
Wed 03:38:22 PM 44.1970 -73.9110 239° Southwest 519 597 38,000  Level FlightAware ADS-B
Wed 03:39:02 PM 44.1460 -74.0280 239° Southwest 519 597 38,000  Level FlightAware ADS-B
Wed 03:39:42 PM 44.0970 -74.1400 239° Southwest 519 597 38,000  Level FlightAware ADS-B
Wed 03:40:27 PM 44.0400 -74.2710 239° Southwest 517 595 38,000  Level FlightAware ADS-B
Wed 03:41:07 PM 43.9890 -74.3870 239° Southwest 517 595 38,000  Level FlightAware ADS-B
Wed 03:41:52 PM 43.9340 -74.5110 238° Southwest 517 595 38,000  Level FlightAware ADS-B
Wed 03:42:32 PM 43.8830 -74.6240 238° Southwest 516 594 38,000  Level FlightAware ADS-B
Wed 03:43:12 PM 43.8320 -74.7390 238° Southwest 516 594 38,000  Level FlightAware ADS-B
Wed 03:43:57 PM 43.7780 -74.8600 238° Southwest 515 593 38,000  Level FlightAware ADS-B
Wed 03:44:37 PM 43.7280 -74.9690 238° Southwest 515 593 38,000  Level FlightAware ADS-B
Wed 03:47:07 PM 43.5400 -75.3860 238° Southwest 512 589 38,000  Level FlightAware ADS-B
Wed 03:47:57 PM 43.4780 -75.5210 238° Southwest 511 588 38,000  Level FlightAware ADS-B
Wed 03:49:42 PM 43.3500 -75.7980 238° Southwest 510 587 38,000  Level FlightAware ADS-B
Wed 03:50:09 PM 43.3072 -75.8925 238° Southwest 524 603 38,000  Level Cleveland Center
Wed 03:51:09 PM 43.2325 -76.0550 238° Southwest 518 596 38,000  Level Cleveland Center
Wed 03:52:09 PM 43.1553 -76.2200 237° Southwest 518 596 38,000  Level Cleveland Center
Wed 03:53:09 PM 43.0733 -76.3678 233° Southwest 518 596 38,000  Level Cleveland Center
Wed 03:54:09 PM 42.9869 -76.5214 232° Southwest 513 590 38,000  Level Cleveland Center
Wed 03:55:09 PM 42.9067 -76.6711 234° Southwest 508 585 38,000  Level Cleveland Center
Wed 03:56:09 PM 42.8300 -76.8061 232° Southwest 508 585 38,000  Level Cleveland Center
Wed 03:57:09 PM 42.7453 -76.9583 233° Southwest 508 585 38,000  Level Cleveland Center
Wed 03:58:09 PM 42.6622 -77.1100 233° Southwest 508 585 38,000  Level Cleveland Center
Wed 03:59:09 PM 42.5789 -77.2558 232° Southwest 508 585 38,000  Level Cleveland Center
Wed 04:00:09 PM 42.4936 -77.4067 233° Southwest 508 585 38,000  Level Cleveland Center
Wed 04:01:09 PM 42.4000 -77.5689 232° Southwest 503 579 38,000  Level Cleveland Center
Wed 04:02:09 PM 42.3183 -77.7158 233° Southwest 503 579 38,000  Level Cleveland Center
Wed 04:03:09 PM 42.2342 -77.8600 232° Southwest 503 579 38,000  Level Cleveland Center
Wed 04:04:09 PM 42.1542 -78.0036 233° Southwest 497 572 38,000  Level Cleveland Center
Wed 04:05:09 PM 42.0697 -78.1442 231° Southwest 492 566 38,000  Level Cleveland Center
Wed 04:06:09 PM 41.9953 -78.2725 232° Southwest 492 566 38,000  Level Cleveland Center
Wed 04:07:09 PM 41.9103 -78.4181 232° Southwest 492 566 38,000  Level Cleveland Center
Wed 04:08:09 PM 41.8294 -78.5572 232° Southwest 492 566 38,000  Level Cleveland Center
Wed 04:09:09 PM 41.7469 -78.7186 236° Southwest 492 566 38,000  Level Cleveland Center
Wed 04:14:42 PM 41.3320 -79.5430 236° Southwest 481 554 38,000  Level FlightAware ADS-B
Wed 04:15:27 PM 41.2740 -79.6550 235° Southwest 480 552 38,000  Level FlightAware ADS-B
Wed 04:16:07 PM 41.2260 -79.7500 236° Southwest 480 552 38,000  Level FlightAware ADS-B
Wed 04:16:42 PM 41.1820 -79.8330 235° Southwest 479 551 38,000  Level FlightAware ADS-B
Wed 04:19:37 PM 40.9600 -80.2620 236° Southwest 481 554 38,000  Level FlightAware ADS-B
Wed 04:20:17 PM 40.9110 -80.3560 235° Southwest 482 555 38,000  Level FlightAware ADS-B
Wed 04:21:02 PM 40.8540 -80.4650 235° Southwest 484 557 38,000  Level FlightAware ADS-B
Wed 04:21:42 PM 40.8040 -80.5600 235° Southwest 484 557 38,000  Level FlightAware ADS-B
Wed 04:22:27 PM 40.7440 -80.6710 235° Southwest 485 558 38,000  Level FlightAware ADS-B
Wed 04:23:07 PM 40.6920 -80.7710 236° Southwest 485 558 38,000  Level FlightAware ADS-B
Wed 04:23:52 PM 40.6350 -80.8770 235° Southwest 484 557 38,000  Level FlightAware ADS-B
Wed 04:24:32 PM 40.5840 -80.9730 235° Southwest 483 556 38,000  Level FlightAware ADS-B
Wed 04:25:17 PM 40.5260 -81.0810 235° Southwest 482 555 38,000  Level FlightAware ADS-B
Wed 04:25:57 PM 40.4730 -81.1790 235° Southwest 480 552 38,000  Level FlightAware ADS-B
Wed 04:26:37 PM 40.4230 -81.2720 235° Southwest 479 551 38,000  Level FlightAware ADS-B
Wed 04:27:22 PM 40.3660 -81.3780 235° Southwest 477 549 38,000  Level FlightAware ADS-B
Wed 04:28:02 PM 40.3150 -81.4720 235° Southwest 475 547 38,000  Level FlightAware ADS-B
Wed 04:28:47 PM 40.2570 -81.5770 234° Southwest 473 544 38,000  Level FlightAware ADS-B
Wed 04:29:27 PM 40.2060 -81.6700 234° Southwest 470 541 38,000  Level FlightAware ADS-B
Wed 04:30:07 PM 40.1560 -81.7630 235° Southwest 469 540 38,000  Level FlightAware ADS-B
Wed 04:30:52 PM 40.1000 -81.8640 234° Southwest 467 537 38,000  Level FlightAware ADS-B
Wed 04:31:32 PM 40.0490 -81.9570 234° Southwest 465 535 38,000  Level FlightAware ADS-B
Wed 04:32:17 PM 39.9920 -82.0590 234° Southwest 462 532 38,000  Level FlightAware ADS-B
Wed 04:32:57 PM 39.9410 -82.1490 234° Southwest 460 529 38,000  Level FlightAware ADS-B
Wed 04:33:37 PM 39.8920 -82.2390 235° Southwest 458 527 38,000  Level FlightAware ADS-B
Wed 04:34:22 PM 39.8350 -82.3410 234° Southwest 458 527 38,000  Level FlightAware ADS-B
Wed 04:35:02 PM 39.7870 -82.4280 234° Southwest 457 526 38,000  Level FlightAware ADS-B
Wed 04:35:47 PM 39.7300 -82.5300 234° Southwest 456 525 38,000  Level FlightAware ADS-B
Wed 04:36:17 PM 39.6930 -82.5940 233° Southwest 455 524 38,000  Level FlightAware ADS-B
Wed 04:37:07 PM 39.6300 -82.7060 234° Southwest 454 522 38,000  Level FlightAware ADS-B
Wed 04:37:52 PM 39.5770 -82.8010 234° Southwest 453 521 38,000  Level FlightAware ADS-B
Wed 04:38:32 PM 39.5240 -82.8920 233° Southwest 452 520 38,000  Level FlightAware ADS-B
Wed 04:39:17 PM 39.4710 -82.9860 234° Southwest 452 520 38,000  Level FlightAware ADS-B
Wed 04:39:57 PM 39.4180 -83.0770 233° Southwest 451 519 38,000  Level FlightAware ADS-B
Wed 04:40:32 PM 39.3790 -83.1430 233° Southwest 451 519 38,000  Level FlightAware ADS-B
Wed 04:41:32 PM 39.2750 -83.2410 216° Southwest 453 521 38,000  Level FlightAware ADS-B
Wed 04:42:17 PM 39.1980 -83.3180 218° Southwest 451 519 38,000  Level FlightAware ADS-B
Wed 04:42:57 PM 39.1300 -83.3880 219° Southwest 449 517 38,000  Level FlightAware ADS-B
Wed 04:43:42 PM 39.0560 -83.4570 216° Southwest 448 516 38,000  Level FlightAware ADS-B
Wed 04:44:22 PM 38.9870 -83.5160 214° Southwest 448 516 38,000  Level FlightAware ADS-B
Wed 04:45:07 PM 38.9080 -83.5830 213° Southwest 447 514 38,000  Level FlightAware ADS-B
Wed 04:45:42 PM 38.8530 -83.6300 214° Southwest 448 516 38,000  Level FlightAware ADS-B
Wed 04:46:27 PM 38.7700 -83.7020 214° Southwest 448 516 38,000  Level FlightAware ADS-B
Wed 04:47:22 PM 38.6810 -83.7770 213° Southwest 449 517 38,000  Level FlightAware ADS-B
Wed 04:48:02 PM 38.6220 -83.8260 213° Southwest 449 517 38,000  Level FlightAware ADS-B
Wed 04:48:42 PM 38.5630 -83.8760 214° Southwest 449 517 38,000  Level FlightAware ADS-B
Wed 04:49:32 PM 38.4890 -83.9370 213° Southwest 449 517 38,000  Level FlightAware ADS-B
Wed 04:50:12 PM 38.4520 -84.1210 256° West 448 516 38,000  Level FlightAware ADS-B
Wed 04:50:47 PM 38.4110 -84.2000 236° Southwest 448 516 38,000  Level FlightAware ADS-B
Wed 04:51:37 PM 38.3510 -84.3110 235° Southwest 448 516 38,000  Level FlightAware ADS-B
Wed 04:52:17 PM 38.3030 -84.3980 235° Southwest 448 516 38,000  Level FlightAware ADS-B
Wed 04:53:02 PM 38.2520 -84.4910 235° Southwest 449 517 38,000  Level FlightAware ADS-B
Wed 04:53:27 PM 38.2199 -84.5522 236° Southwest 450 518 38,000  Level FlightAware ADS-B
Wed 04:54:04 PM 38.1759 -84.6327 235° Southwest 451 519 38,000  Level FlightAware ADS-B
Wed 04:54:36 PM 38.1377 -84.7024 235° Southwest 451 519 38,000  Level FlightAware ADS-B
Wed 04:55:07 PM 38.1013 -84.7699 236° Southwest 451 519 38,000  Level FlightAware ADS-B
Wed 04:55:39 PM 38.0625 -84.8395 235° Southwest 453 521 38,000  Level FlightAware ADS-B
Wed 04:56:10 PM 38.0255 -84.9071 235° Southwest 453 521 38,000  Level FlightAware ADS-B
Wed 04:56:41 PM 37.9892 -84.9723 235° Southwest 453 521 38,000  Level FlightAware ADS-B
Wed 04:57:12 PM 37.9511 -85.0421 235° Southwest 453 521 38,000  Level FlightAware ADS-B
Wed 04:57:43 PM 37.9149 -85.1075 235° Southwest 454 522 38,000  Level FlightAware ADS-B
Wed 04:58:13 PM 37.8782 -85.1748 235° Southwest 454 522 38,000  Level FlightAware ADS-B
Wed 04:58:44 PM 37.8407 -85.2420 235° Southwest 453 521 38,000  Level FlightAware ADS-B
Wed 04:59:17 PM 37.8020 -85.3110 235° Southwest 453 521 38,000  Level FlightAware ADS-B
Wed 05:00:02 PM 37.7490 -85.4060 235° Southwest 452 520 38,000  Level FlightAware ADS-B
Wed 05:00:42 PM 37.7020 -85.4910 235° Southwest 452 520 38,000  Level FlightAware ADS-B
Wed 05:00:47 PM 37.6933 -85.5058 233° Southwest 453 521 38,000  Level FlightAware ADS-B
Wed 05:01:27 PM 37.6460 -85.5920 235° Southwest 452 520 38,000  Level FlightAware ADS-B
Wed 05:01:49 PM 37.6178 -85.6415 234° Southwest 452 520 38,000  Level FlightAware ADS-B
Wed 05:02:22 PM 37.5783 -85.7123 235° Southwest 452 520 38,000  Level FlightAware ADS-B
Wed 05:02:52 PM 37.5419 -85.7768 235° Southwest 452 520 38,000  Level FlightAware ADS-B
Wed 05:03:32 PM 37.4939 -85.8604 234° Southwest 451 519 38,000  Level FlightAware ADS-B
Wed 05:04:03 PM 37.4557 -85.9286 235° Southwest 450 518 38,000  Level FlightAware ADS-B
Wed 05:04:35 PM 37.4169 -85.9970 234° Southwest 450 518 38,000  Level FlightAware ADS-B
Wed 05:05:15 PM 37.3686 -86.0822 235° Southwest 450 518 38,000  Level FlightAware ADS-B
Wed 05:05:51 PM 37.3251 -86.1588 234° Southwest 451 519 38,000  Level FlightAware ADS-B
Wed 05:06:23 PM 37.2867 -86.2247 234° Southwest 450 518 38,000  Level FlightAware ADS-B
Wed 05:06:54 PM 37.2479 -86.2928 234° Southwest 452 520 38,000  Level FlightAware ADS-B
Wed 05:07:29 PM 37.2062 -86.3650 234° Southwest 452 520 38,000  Level FlightAware ADS-B
Wed 05:08:00 PM 37.1676 -86.4329 235° Southwest 452 520 38,000  Level FlightAware ADS-B
Wed 05:08:35 PM 37.1251 -86.5071 234° Southwest 451 519 38,000  Level FlightAware ADS-B
Wed 05:09:07 PM 37.0862 -86.5748 234° Southwest 451 519 38,000  Level FlightAware ADS-B
Wed 05:09:47 PM 37.0400 -86.6550 234° Southwest 451 519 38,000  Level FlightAware ADS-B
Wed 05:10:27 PM 36.9886 -86.7420 234° Southwest 452 520 38,000  Level FlightAware ADS-B
Wed 05:11:04 PM 36.9419 -86.8226 234° Southwest 455 524 38,000  Level FlightAware ADS-B
Wed 05:11:57 PM 36.8780 -86.9330 234° Southwest 456 525 38,000  Level FlightAware ADS-B
Wed 05:12:37 PM 36.8300 -87.0160 234° Southwest 456 525 38,000  Level FlightAware ADS-B
Wed 05:13:17 PM 36.7780 -87.1030 233° Southwest 456 525 38,000  Level FlightAware ADS-B
Wed 05:14:02 PM 36.7250 -87.1940 234° Southwest 454 522 38,000  Level FlightAware ADS-B
Wed 05:14:42 PM 36.6750 -87.2780 233° Southwest 453 521 38,000  Level FlightAware ADS-B
Wed 05:15:22 PM 36.6240 -87.3650 234° Southwest 452 520 38,000  Level FlightAware ADS-B
Wed 05:16:07 PM 36.5680 -87.4590 233° Southwest 451 519 38,000  Level FlightAware ADS-B
Wed 05:16:47 PM 36.5170 -87.5440 233° Southwest 450 518 38,000  Level FlightAware ADS-B
Wed 05:17:32 PM 36.4640 -87.6340 234° Southwest 449 517 38,000  Level FlightAware ADS-B
Wed 05:18:12 PM 36.4150 -87.7160 233° Southwest 449 517 38,000  Level FlightAware ADS-B
Wed 05:18:52 PM 36.3650 -87.7990 233° Southwest 449 517 38,000  Level FlightAware ADS-B
Wed 05:19:37 PM 36.3070 -87.8970 234° Southwest 451 519 38,000  Level FlightAware ADS-B
Wed 05:20:17 PM 36.2590 -87.9780 234° Southwest 453 521 38,000  Level FlightAware ADS-B
Wed 05:20:57 PM 36.2080 -88.0610 233° Southwest 455 524 38,000  Level FlightAware ADS-B
Wed 05:21:57 PM 36.1390 -88.1750 233° Southwest 456 525 38,000  Level FlightAware ADS-B
Wed 05:22:42 PM 36.0820 -88.2690 233° Southwest 459 528 38,000  Level FlightAware ADS-B
Wed 05:23:22 PM 36.0260 -88.3610 233° Southwest 460 529 38,000  Level FlightAware ADS-B
Wed 05:24:02 PM 35.9790 -88.4370 233° Southwest 460 529 38,000  Level FlightAware ADS-B
Wed 05:24:42 PM 35.9360 -88.5090 234° Southwest 460 529 38,000  Level FlightAware ADS-B
Wed 05:25:22 PM 35.8920 -88.5800 233° Southwest 460 529 38,000  Level FlightAware ADS-B
Wed 05:26:02 PM 35.8490 -88.6510 233° Southwest 460 529 38,000  Level FlightAware ADS-B
Wed 05:26:42 PM 35.8050 -88.7220 233° Southwest 460 529 38,000  Level FlightAware ADS-B
Wed 05:27:22 PM 35.7620 -88.7940 234° Southwest 460 529 38,000  Level FlightAware ADS-B
Wed 05:28:02 PM 35.7180 -88.8650 233° Southwest 460 529 38,000  Level FlightAware ADS-B
Wed 05:28:52 PM 35.6640 -88.9540 233° Southwest 460 529 38,000  Level FlightAware ADS-B
Wed 05:29:32 PM 35.6200 -89.0250 233° Southwest 460 529 38,000  Level FlightAware ADS-B
Wed 05:30:12 PM 35.5760 -89.0960 233° Southwest 460 529 38,000  Level FlightAware ADS-B
Wed 05:30:52 PM 35.5330 -89.1670 233° Southwest 460 529 38,000  Level FlightAware ADS-B
Wed 05:31:32 PM 35.4890 -89.2380 233° Southwest 460 529 38,000  Level FlightAware ADS-B
Wed 05:32:22 PM 35.4350 -89.3270 233° Southwest 460 529 38,000  Level FlightAware ADS-B
Wed 05:33:02 PM 35.3910 -89.3980 233° Southwest 460 529 38,000  Level FlightAware ADS-B
Wed 05:33:57 PM 35.2078 -89.6861 233° Southwest 466 536 38,000  Level Memphis Center
Wed 05:34:57 PM 35.1292 -89.8111 232° Southwest 466 536 38,000  Level Memphis Center
Wed 05:35:57 PM 35.0506 -89.9386 233° Southwest 466 536 38,000  Level Memphis Center
Wed 05:36:57 PM 34.9717 -90.0656 233° Southwest 466 536 38,000  Level Memphis Center
Wed 05:37:57 PM 34.8925 -90.1900 232° Southwest 466 536 38,000  Level Memphis Center
Wed 05:38:57 PM 34.8133 -90.3167 233° Southwest 466 536 38,000  Level Memphis Center
Wed 05:39:57 PM 34.7444 -90.4278 233° Southwest 466 536 38,000  Level Memphis Center
Wed 05:40:57 PM 34.6672 -90.5517 233° Southwest 461 531 38,000  Level Memphis Center
Wed 05:41:57 PM 34.5917 -90.6700 232° Southwest 461 531 38,000  Level Memphis Center
Wed 05:42:57 PM 34.5164 -90.7933 233° Southwest 461 531 38,000  Level Memphis Center
Wed 05:43:57 PM 34.4386 -90.9136 232° Southwest 461 531 38,000  Level Memphis Center
Wed 05:44:57 PM 34.3608 -91.0389 233° Southwest 461 531 38,000  Level Memphis Center
Wed 05:45:57 PM 34.2850 -91.1592 233° Southwest 455 524 38,000  Level Memphis Center
Wed 05:46:57 PM 34.2047 -91.2814 232° Southwest 462 532 38,000  Level Memphis Center
Wed 05:47:57 PM 34.1225 -91.4161 234° Southwest 462 532 38,000  Level Memphis Center
Wed 05:48:57 PM 34.0400 -91.5378 231° Southwest 462 532 38,000  Level Memphis Center
Wed 05:49:57 PM 33.9636 -91.6644 234° Southwest 462 532 38,000  Level Memphis Center
Wed 05:50:57 PM 33.8850 -91.7833 231° Southwest 462 532 38,000  Level Memphis Center
Wed 05:52:30 PM 33.7672 -91.9694 233° Southwest 461 531 38,000  Level Fort Worth Center
Wed 05:53:30 PM 33.6869 -92.0917 232° Southwest 466 536 38,000  Level Fort Worth Center
Wed 05:54:30 PM 33.6089 -92.2161 233° Southwest 466 536 38,000  Level Fort Worth Center
Wed 05:55:30 PM 33.5281 -92.3356 231° Southwest 466 536 38,000  Level Fort Worth Center
Wed 05:56:30 PM 33.4494 -92.4569 232° Southwest 466 536 38,000  Level Fort Worth Center
Wed 05:57:30 PM 33.3706 -92.5758 232° Southwest 466 536 38,000  Level Fort Worth Center
Wed 06:04:04 PM 32.6982 -93.2012 232° Southwest 470 541 38,000  Level FlightAware ADS-B
Wed 06:04:37 PM 32.6382 -93.2479 213° Southwest 471 542 38,000  Level FlightAware ADS-B
Wed 06:05:07 PM 32.5839 -93.2918 214° Southwest 470 541 38,000  Level FlightAware ADS-B
Wed 06:05:38 PM 32.5281 -93.3397 216° Southwest 470 541 38,000  Level FlightAware ADS-B
Wed 06:05:49 PM 32.5116 -93.3600 226° Southwest 469 540 38,000  Level FlightAware ADS-B
Wed 06:06:15 PM 32.4836 -93.4148 239° Southwest 472 543 38,000  Level FlightAware ADS-B
Wed 06:06:37 PM 32.4626 -93.4691 245° Southwest 476 548 38,000  Level FlightAware ADS-B
Wed 06:06:55 PM 32.4397 -93.5069 234° Southwest 477 549 38,000  Level FlightAware ADS-B
Wed 06:07:05 PM 32.4245 -93.5259 227° Southwest 477 549 38,000  Level FlightAware ADS-B
Wed 06:07:19 PM 32.4018 -93.5508 223° Southwest 479 551 38,000  Level FlightAware ADS-B
Wed 06:07:50 PM 32.3478 -93.5993 217° Southwest 480 552 38,000  Level FlightAware ADS-B
Wed 06:08:29 PM 32.2753 -93.6595 215° Southwest 480 552 38,000  Level FlightAware ADS-B
Wed 06:08:54 PM 32.2291 -93.6952 213° Southwest 480 552 38,000  Level FlightAware ADS-B
Wed 06:09:25 PM 32.1678 -93.7336 208° Southwest 480 552 38,000  Level FlightAware ADS-B
Wed 06:09:45 PM 32.1297 -93.7588 209° Southwest 480 552 38,000  Level FlightAware ADS-B
Wed 06:10:07 PM 32.0892 -93.7914 214° Southwest 479 551 38,000  Level FlightAware ADS-B
Wed 06:10:38 PM 32.0375 -93.8440 221° Southwest 479 551 38,000  Level FlightAware ADS-B
Wed 06:10:55 PM 32.0096 -93.8715 220° Southwest 479 551 38,000  Level FlightAware ADS-B
Wed 06:11:28 PM 31.9500 -93.9241 217° Southwest 479 551 38,000  Level FlightAware ADS-B
Wed 06:12:04 PM 31.8831 -93.9766 214° Southwest 478 550 38,000  Level FlightAware ADS-B
Wed 06:12:35 PM 31.8273 -94.0216 214° Southwest 477 549 38,000  Level FlightAware ADS-B
Wed 06:13:13 PM 31.7570 -94.0760 213° Southwest 479 551 38,000  Level FlightAware ADS-B
Wed 06:13:44 PM 31.6993 -94.1201 213° Southwest 477 549 38,000  Level FlightAware ADS-B
Wed 06:14:16 PM 31.6405 -94.1656 213° Southwest 476 548 38,000  Level FlightAware ADS-B
Wed 06:14:48 PM 31.5806 -94.2112 213° Southwest 478 550 38,000  Level FlightAware ADS-B
Wed 06:15:19 PM 31.5247 -94.2541 213° Southwest 477 549 38,000  Level FlightAware ADS-B
Wed 06:15:49 PM 31.4690 -94.2967 213° Southwest 476 548 38,000  Level FlightAware ADS-B
Wed 06:16:19 PM 31.4127 -94.3406 214° Southwest 475 547 38,000  Level FlightAware ADS-B
Wed 06:16:50 PM 31.3553 -94.3844 213° Southwest 475 547 38,000  Level FlightAware ADS-B
Wed 06:17:21 PM 31.2992 -94.4280 214° Southwest 475 547 38,000  Level FlightAware ADS-B
Wed 06:17:51 PM 31.2439 -94.4702 213° Southwest 474 545 38,000  Level FlightAware ADS-B
Wed 06:18:22 PM 31.1874 -94.5135 213° Southwest 472 543 38,000  Level FlightAware ADS-B
Wed 06:18:53 PM 31.1310 -94.5554 212° Southwest 472 543 38,000  Level FlightAware ADS-B
Wed 06:19:23 PM 31.0749 -94.5985 213° Southwest 471 542 38,000  Level FlightAware ADS-B
Wed 06:19:55 PM 31.0163 -94.6430 213° Southwest 472 543 38,000  Level FlightAware ADS-B
Wed 06:20:28 PM 30.9564 -94.6887 213° Southwest 472 543 38,000  Level FlightAware ADS-B
Wed 06:21:01 PM 30.8958 -94.7346 213° Southwest 473 544 38,000  Level FlightAware ADS-B
Wed 06:21:32 PM 30.8395 -94.7777 213° Southwest 473 544 38,000  Level FlightAware ADS-B
Wed 06:22:04 PM 30.7797 -94.8220 212° Southwest 473 544 38,000  Level FlightAware ADS-B
Wed 06:22:39 PM 30.7157 -94.8706 213° Southwest 473 544 38,000  Level FlightAware ADS-B
Wed 06:23:09 PM 30.6598 -94.9120 213° Southwest 473 544 38,000  Level FlightAware ADS-B
Wed 06:23:41 PM 30.6016 -94.9564 213° Southwest 473 544 38,000  Level FlightAware ADS-B
Wed 06:24:13 PM 30.5428 -95.0005 213° Southwest 472 543 38,000  Level FlightAware ADS-B
Wed 06:24:43 PM 30.4872 -95.0418 213° Southwest 472 543 38,000  Level FlightAware ADS-B
Wed 06:25:14 PM 30.4303 -95.0842 213° Southwest 471 542 38,000  Level FlightAware ADS-B
Wed 06:25:46 PM 30.3719 -95.1281 213° Southwest 470 541 38,000  Level FlightAware ADS-B
Wed 06:26:18 PM 30.3140 -95.1719 213° Southwest 469 540 38,000  Level FlightAware ADS-B
Wed 06:26:50 PM 30.2562 -95.2141 212° Southwest 470 541 38,000  Level FlightAware ADS-B
Wed 06:27:20 PM 30.2010 -95.2564 214° Southwest 469 540 38,000  Level FlightAware ADS-B
Wed 06:27:50 PM 30.1455 -95.2970 212° Southwest 470 541 38,000  Level FlightAware ADS-B
Wed 06:28:21 PM 30.0898 -95.3378 212° Southwest 471 542 38,000  Level FlightAware ADS-B
Wed 06:28:51 PM 30.0337 -95.3800 213° Southwest 472 543 38,000  Level FlightAware ADS-B
Wed 06:29:21 PM 29.9780 -95.4210 213° Southwest 473 544 38,000  Level FlightAware ADS-B
Wed 06:29:54 PM 29.9177 -95.4659 213° Southwest 473 544 38,000  Level FlightAware ADS-B
Wed 06:30:24 PM 29.8613 -95.5068 212° Southwest 474 545 38,000  Level FlightAware ADS-B
Wed 06:30:55 PM 29.8049 -95.5490 213° Southwest 474 545 38,000  Level FlightAware ADS-B
Wed 06:31:25 PM 29.7492 -95.5898 212° Southwest 474 545 38,000  Level FlightAware ADS-B
Wed 06:31:56 PM 29.6930 -95.6307 212° Southwest 473 544 38,000  Level FlightAware ADS-B
Wed 06:32:26 PM 29.6372 -95.6726 213° Southwest 472 543 38,000  Level FlightAware ADS-B
Wed 06:32:59 PM 29.5762 -95.7173 213° Southwest 473 544 38,000  Level FlightAware ADS-B
Wed 06:33:40 PM 29.5008 -95.7710 212° Southwest 472 543 38,000  Level FlightAware ADS-B
Wed 06:34:07 PM 29.4479 -95.8054 210° Southwest 476 548 38,000  Level FlightAware ADS-B
Wed 06:34:29 PM 29.4034 -95.8289 205° Southwest 478 550 38,000  Level FlightAware ADS-B
Wed 06:35:32 PM 29.2780 -95.8860 202° Southwest 479 551 38,000  Level FlightAware ADS-B
Wed 06:36:17 PM 29.1840 -95.9280 201° Southwest 476 548 38,000  Level FlightAware ADS-B
Wed 06:36:57 PM 29.1030 -95.9660 202° Southwest 474 545 38,000  Level FlightAware ADS-B
Wed 06:37:42 PM 29.0120 -96.0080 202° Southwest 473 544 38,000  Level FlightAware ADS-B
Wed 06:38:22 PM 28.9320 -96.0450 202° Southwest 471 542 38,000  Level FlightAware ADS-B
Wed 06:39:02 PM 28.8510 -96.0820 202° Southwest 471 542 38,000  Level FlightAware ADS-B
Wed 06:39:47 PM 28.7570 -96.1270 203° Southwest 472 543 38,000  Level FlightAware ADS-B
Wed 06:40:22 PM 28.6870 -96.1580 201° Southwest 472 543 38,000  Level FlightAware ADS-B
Wed 06:40:57 PM 28.6180 -96.1910 203° Southwest 470 541 38,000  Level FlightAware ADS-B
Wed 06:41:42 PM 28.5330 -96.2330 203° Southwest 470 541 38,000  Level FlightAware ADS-B
Wed 06:41:56 PM 28.4939 -96.2516 203° Southwest 470 541 38,000  Level FlightAware ADS-B
Wed 06:42:27 PM 28.4320 -96.2814 203° Southwest 469 540 38,000  Level FlightAware ADS-B
Wed 06:42:59 PM 28.3687 -96.3120 203° Southwest 468 539 38,000  Level FlightAware ADS-B
Wed 06:43:31 PM 28.3046 -96.3425 203° Southwest 467 537 38,000  Level FlightAware ADS-B
Wed 06:44:03 PM 28.2413 -96.3728 203° Southwest 465 535 38,000  Level FlightAware ADS-B
Wed 06:44:36 PM 28.1744 -96.4040 202° Southwest 463 533 38,000  Level FlightAware ADS-B
Wed 06:45:09 PM 28.1098 -96.4351 203° Southwest 462 532 38,000  Level FlightAware ADS-B
Wed 06:45:42 PM 28.0442 -96.4660 203° Southwest 460 529 38,000  Level FlightAware ADS-B
Wed 06:49:57 PM 27.5500 -96.7000 203° Southwest 456 525 38,000  Level FlightAware ADS-B
Wed 06:50:37 PM 27.4710 -96.7370 203° Southwest 456 525 38,000  Level FlightAware ADS-B
Wed 06:51:08 PM 27.4083 -96.7663 203° Southwest 458 527 38,000  Level FlightAware ADS-B
Wed 06:52:02 PM 27.3070 -96.8140 203° Southwest 457 526 38,000  Level FlightAware ADS-B
Wed 06:52:42 PM 27.2290 -96.8510 203° Southwest 457 526 38,000  Level FlightAware ADS-B
Wed 06:53:27 PM 27.1370 -96.8940 203° Southwest 457 526 38,000  Level FlightAware ADS-B
Wed 06:54:07 PM 27.0600 -96.9290 202° Southwest 455 524 38,000  Level FlightAware ADS-B
Wed 06:54:47 PM 26.9820 -96.9670 203° Southwest 455 524 38,000  Level FlightAware ADS-B
Wed 06:55:32 PM 26.8970 -97.0050 202° Southwest 453 521 38,000  Level FlightAware ADS-B
Wed 06:56:12 PM 26.8170 -97.0420 202° Southwest 452 520 38,000  Level FlightAware ADS-B
Wed 06:56:57 PM 26.7280 -97.0840 203° Southwest 453 521 38,000  Level FlightAware ADS-B
Wed 06:57:37 PM 26.6520 -97.1190 202° Southwest 454 522 38,000  Level FlightAware ADS-B
Wed 06:58:17 PM 26.5740 -97.1550 202° Southwest 453 521 38,000  Level FlightAware ADS-B
Wed 06:59:02 PM 26.4890 -97.1940 202° Southwest 452 520 38,000  Level FlightAware ADS-B
Wed 06:59:42 PM 26.4110 -97.2300 202° Southwest 452 520 38,000  Level FlightAware ADS-B
Wed 07:00:27 PM 26.3210 -97.2720 203° Southwest 452 520 38,000  Level FlightAware ADS-B
Wed 07:01:07 PM 26.2450 -97.3070 202° Southwest 452 520 38,000  Level FlightAware ADS-B
Wed 07:01:47 PM 26.1670 -97.3420 202° Southwest 453 521 38,000  Level FlightAware ADS-B
Wed 07:02:32 PM 26.0820 -97.3810 202° Southwest 452 520 38,000  Level FlightAware ADS-B
Wed 07:03:12 PM 26.0030 -97.4180 203° Southwest 451 519 38,000  Level FlightAware ADS-B
Wed 07:03:47 PM 25.9350 -97.4490 202° Southwest 452 520 38,000  Level FlightAware ADS-B
Wed 07:04:37 PM 25.8370 -97.4940 202° Southwest 451 519 38,000  Level FlightAware ADS-B
Wed 07:05:17 PM 25.7580 -97.5280 201° Southwest 455 524 38,000  Level FlightAware ADS-B
Wed 07:06:02 PM 25.6700 -97.5590 198° South 459 528 38,000  Level FlightAware ADS-B
Wed 07:06:42 PM 25.5890 -97.5880 198° South 460 529 38,000  Level FlightAware ADS-B
Wed 07:07:27 PM 25.4940 -97.6220 198° South 459 528 38,000  Level FlightAware ADS-B
Wed 07:08:07 PM 25.4130 -97.6500 197° South 458 527 38,000 525 Level FlightAware ADS-B
Wed 07:08:47 PM 25.3340 -97.6780 198° South 456 525 38,700 857 Climbing FlightAware ADS-B
Wed 07:09:17 PM 25.2720 -97.7000 198° South 456 525 39,000 257 Climbing FlightAware ADS-B
Wed 07:09:57 PM 25.1910 -97.7290 198° South 456 525 39,000  Level FlightAware ADS-B
Wed 07:10:42 PM 25.1030 -97.7600 198° South 455 524 39,000  Level FlightAware ADS-B
Wed 07:11:22 PM 25.0220 -97.7880 197° South 452 520 39,000  Level FlightAware ADS-B
Wed 07:12:07 PM 24.9320 -97.8190 197° South 452 520 39,000  Level FlightAware ADS-B
Wed 07:12:47 PM 24.8510 -97.8470 197° South 453 521 39,000  Level FlightAware ADS-B
Wed 07:13:32 PM 24.7600 -97.8790 198° South 452 520 39,000  Level FlightAware ADS-B
Wed 07:14:12 PM 24.6820 -97.9060 197° South 453 521 39,000  Level FlightAware ADS-B
Wed 07:14:52 PM 24.6060 -97.9320 197° South 452 520 39,000  Level FlightAware ADS-B
Wed 07:15:37 PM 24.5210 -97.9620 198° South 450 518 39,000  Level FlightAware ADS-B
Wed 07:16:07 PM 24.4700 -97.9790 197° South 450 518 39,000  Level FlightAware ADS-B
Wed 07:16:47 PM 24.4020 -98.0010 196° South 450 518 39,000  Level FlightAware ADS-B
Wed 07:17:27 PM 24.3350 -98.0240 197° South 450 518 39,000  Level FlightAware ADS-B
Wed 07:18:07 PM 24.2670 -98.0470 197° South 450 518 39,000  Level FlightAware ADS-B
Wed 07:18:47 PM 24.1990 -98.0700 197° South 450 518 39,000  Level FlightAware ADS-B
Wed 07:19:27 PM 24.1320 -98.0920 197° South 450 518 39,000  Level FlightAware ADS-B
Wed 07:20:17 PM 24.0470 -98.1210 197° South 450 518 39,000  Level FlightAware ADS-B
Wed 07:20:57 PM 23.9790 -98.1430 196° South 450 518 39,000  Level FlightAware ADS-B
Wed 07:21:37 PM 23.9120 -98.1660 197° South 450 518 39,000  Level FlightAware ADS-B
Wed 07:22:17 PM 23.8440 -98.1890 197° South 450 518 39,000  Level FlightAware ADS-B
Wed 07:22:57 PM 23.7760 -98.2110 196° South 450 518 39,000  Level FlightAware ADS-B
Wed 07:23:47 PM 23.6920 -98.2390 197° South 450 518 39,000  Level FlightAware ADS-B
Wed 07:24:27 PM 23.6240 -98.2620 197° South 450 518 39,000 -757 Level FlightAware ADS-B
Wed 07:27:00 PM 23.3074 -98.3739 198° South  Level FlightAware Approximate
Wed 07:28:00 PM 23.1829 -98.4163 197° South  Level FlightAware Approximate
Wed 07:29:00 PM 23.0578 -98.4568 197° South  Level FlightAware Approximate
Wed 07:30:00 PM 22.9327 -98.4971 197° South  Level FlightAware Approximate
Wed 07:31:00 PM 22.8076 -98.5374 197° South  Level FlightAware Approximate
Wed 07:32:00 PM 22.6826 -98.5783 198° South  Level FlightAware Approximate
Wed 07:33:00 PM 22.5582 -98.6210 198° South  Level FlightAware Approximate
Wed 07:34:00 PM 22.4338 -98.6636 198° South  Level FlightAware Approximate
Wed 07:35:00 PM 22.3093 -98.7060 198° South  Level FlightAware Approximate
Wed 07:36:00 PM 22.1849 -98.7485 198° South  Level FlightAware Approximate
Wed 07:37:00 PM 22.0604 -98.7908 197° South  Level FlightAware Approximate
Wed 07:38:00 PM 21.9314 -98.7940 177° South  Level FlightAware Approximate
Wed 07:39:00 PM 21.8011 -98.7863 177° South  Level FlightAware Approximate
Wed 07:40:00 PM 21.6710 -98.7754 175° South  Level FlightAware Approximate
Wed 07:41:00 PM 21.5408 -98.7667 180° South  Level FlightAware Approximate
Wed 07:42:00 PM 21.4104 -98.7608 177° South  Level FlightAware Approximate
Wed 07:43:00 PM 21.2801 -98.7546 177° South  Level FlightAware Approximate
Wed 07:44:00 PM 21.1505 -98.7418 167° South  Level FlightAware Approximate
Wed 07:45:00 PM 21.0211 -98.7270 176° South  Level FlightAware Approximate
Wed 07:46:00 PM 20.8909 -98.7183 176° South  Level FlightAware Approximate
Wed 07:47:00 PM 20.7606 -98.7104 177° South  Level FlightAware Approximate
Wed 07:48:00 PM 20.6303 -98.7028 177° South  Level FlightAware Approximate
Wed 07:49:00 PM 20.4999 -98.6969 178° South  Level FlightAware Approximate
Wed 07:50:00 PM 20.3695 -98.6921 178° South  Level FlightAware Approximate
Wed 07:51:00 PM 20.2390 -98.6872 178° South  Level FlightAware Approximate
Wed 07:52:00 PM 20.1094 -98.6870 205° Southwest  Level FlightAware Approximate
Wed 07:53:00 PM 19.9912 -98.7460 205° Southwest  Level FlightAware Approximate
Wed 07:54:00 PM 19.8750 -98.8091 207° Southwest  Level FlightAware Approximate
Wed 07:55:00 PM 19.7590 -98.8728 208° Southwest  Level FlightAware Approximate
Wed 07:56:00 PM 19.6435 -98.9372 209° Southwest  Level FlightAware Approximate
Wed 07:57:00 PM 19.5285 -99.0024 205° Southwest  Level FlightAware Approximate
Wed 07:57:27 PM 19.7020 -99.1260 210° Southwest 267 307 13,500  Level FlightAware ADS-B
Wed 07:58:00 PM 19.4363 -99.0721 210° Southwest  Level Estimated
Wed 07:58:12 PM 19.6540 -99.1590 213° Southwest 277 319 12,400  Level FlightAware ADS-B
Wed 07:58:52 PM 19.6130 -99.1880 214° Southwest 255 293 11,700 -1,050 Descending FlightAware ADS-B
Wed 07:59:32 PM 19.5730 -99.2160 213° Southwest 255 293 11,000 -982 Descending FlightAware ADS-B
Wed 07:59:47 PM 19.5560 -99.2240 204° Southwest 248 285 10,800 -500 Descending FlightAware ADS-B
Wed 08:00:32 PM 19.5100 -99.2170 172° South 215 247 10,500 -565 Descending FlightAware ADS-B
Wed 08:01:12 PM 19.4730 -99.2070 166° South 203 234 10,000 -600 Descending FlightAware ADS-B
Wed 08:01:42 PM 19.4460 -99.1990 164° South 188 216 9,800 -436 Descending FlightAware ADS-B
Wed 08:02:07 PM 19.4250 -99.1940 167° South 183 211 9,600 -655 Descending FlightAware ADS-B
Wed 08:02:37 PM 19.4010 -99.1860 163° South 182 209 9,200 -800 Descending FlightAware ADS-B
Wed 08:02:52 PM 19.3920 -99.1780 140° Southeast 180 207 9,000 -960 Descending FlightAware ADS-B
Wed 08:03:02 PM 19.3880 -99.1700 118° Southeast 176 203 8,800 -873 Descending FlightAware ADS-B
Wed 08:03:47 PM 19.3990 -99.1370 71° East 158 182 8,200 -800 Descending FlightAware ADS-B
Wed 08:04:02 PM 19.4040 -99.1270 62° Northeast 162 186 8,000 -800 Descending FlightAware ADS-B
Wed 08:04:32 PM 19.4150 -99.1070 60° Northeast 162 186 7,600 -436 Descending FlightAware ADS-B
Wed 08:04:57 PM 19.4240 -99.0910 59° Northeast 162 186 7,600  Level FlightAware ADS-B
Wed 08:07:00 PM 19.4167 -99.0667 210° Southwest  Level FlightAware Approximate
Wed 08:08:00 PM 19.4363 -99.0721 210° Southwest  Level Estimated
Wed 08:09:00 PM 19.4363 -99.0721 210° Southwest  Level Estimated
Wed 08:10:00 PM 19.4363 -99.0721 210° Southwest  Level Estimated
Wed 08:11:00 PM 19.4363 -99.0721 210° Southwest  Level Estimated
Wed 08:12:00 PM 19.4363 -99.0721 210° Southwest  Level Estimated
Wed 08:13:00 PM 19.4363 -99.0721 210° Southwest  Level Estimated
Wed 08:14:00 PM 19.4363 -99.0721 210° Southwest  Level Estimated
Wed 08:15:00 PM 19.4363 -99.0721 210° Southwest  Level Estimated
Wed 08:16:00 PM 19.4363 -99.0721 210° Southwest  Level Estimated
Wed 08:17:00 PM 19.4363 -99.0721 210° Southwest  Level Estimated
Wed 08:18:00 PM 19.4363 -99.0721 210° Southwest  Level Estimated

Login

Don't have an account? Register now (free) for customized features, flight alerts, and more!